<?xml version="1.0" encoding="utf-8"?>
<gpx xmlns:xsi="http://www.w3.org/2001/XMLSchema-instance" xmlns:xsd="http://www.w3.org/2001/XMLSchema" version="1.1" creator="Shapelink.com" xmlns="http://www.topografix.com/GPX/1/1" xmlns:gpxtpx="http://www.garmin.com/xmlschemas/TrackPointExtension/v1">
  <metadata>
    <name>Gåing 6.64 km, 2012-02-25</name>
    <desc></desc>
    <author><name>Mikael Blom</name></author> 
    <time>2012-02-25T15:33:16Z</time>
  </metadata>
  <trk>
    <name>Gåing 6.64 km, 2012-02-25</name>
    <trkseg>
      <trkpt lat="59.978921" lon="17.7397064">
        <ele>44.358</ele>
        <time>2012-02-25T15:33:16Z</time>
      </trkpt>
      <trkpt lat="59.9788569" lon="17.7398055">
        <ele>36.6675</ele>
        <time>2012-02-25T15:34:10Z</time>
      </trkpt>
      <trkpt lat="59.9788663" lon="17.7397939">
        <ele>37.1481</ele>
        <time>2012-02-25T15:34:11Z</time>
      </trkpt>
      <trkpt lat="59.9789226" lon="17.739761">
        <ele>37.1481</ele>
        <time>2012-02-25T15:34:16Z</time>
      </trkpt>
      <trkpt lat="59.9789479" lon="17.7397339">
        <ele>37.6287</ele>
        <time>2012-02-25T15:34:21Z</time>
      </trkpt>
      <trkpt lat="59.9789718" lon="17.7395956">
        <ele>38.5901</ele>
        <time>2012-02-25T15:34:27Z</time>
      </trkpt>
      <trkpt lat="59.9789913" lon="17.7395062">
        <ele>39.0707</ele>
        <time>2012-02-25T15:34:34Z</time>
      </trkpt>
      <trkpt lat="59.9789707" lon="17.7394242">
        <ele>37.6287</ele>
        <time>2012-02-25T15:34:42Z</time>
      </trkpt>
      <trkpt lat="59.9789567" lon="17.739372">
        <ele>36.6675</ele>
        <time>2012-02-25T15:34:48Z</time>
      </trkpt>
      <trkpt lat="59.9789499" lon="17.7393165">
        <ele>37.6287</ele>
        <time>2012-02-25T15:34:52Z</time>
      </trkpt>
      <trkpt lat="59.9789696" lon="17.7392267">
        <ele>39.0707</ele>
        <time>2012-02-25T15:34:55Z</time>
      </trkpt>
      <trkpt lat="59.9790538" lon="17.7391501">
        <ele>40.0321</ele>
        <time>2012-02-25T15:35:02Z</time>
      </trkpt>
      <trkpt lat="59.9790805" lon="17.7391274">
        <ele>40.9934</ele>
        <time>2012-02-25T15:35:04Z</time>
      </trkpt>
      <trkpt lat="59.9791654" lon="17.7390993">
        <ele>40.9934</ele>
        <time>2012-02-25T15:35:10Z</time>
      </trkpt>
      <trkpt lat="59.9792454" lon="17.7390674">
        <ele>40.0321</ele>
        <time>2012-02-25T15:35:16Z</time>
      </trkpt>
      <trkpt lat="59.9793221" lon="17.7390058">
        <ele>39.0707</ele>
        <time>2012-02-25T15:35:22Z</time>
      </trkpt>
      <trkpt lat="59.9794404" lon="17.7389238">
        <ele>40.5128</ele>
        <time>2012-02-25T15:35:31Z</time>
      </trkpt>
      <trkpt lat="59.9794518" lon="17.7389164">
        <ele>40.5128</ele>
        <time>2012-02-25T15:35:32Z</time>
      </trkpt>
      <trkpt lat="59.9794733" lon="17.7389389">
        <ele>40.9934</ele>
        <time>2012-02-25T15:35:37Z</time>
      </trkpt>
      <trkpt lat="59.9794384" lon="17.7390383">
        <ele>38.1094</ele>
        <time>2012-02-25T15:35:41Z</time>
      </trkpt>
      <trkpt lat="59.979361" lon="17.7392272">
        <ele>30.8995</ele>
        <time>2012-02-25T15:35:48Z</time>
      </trkpt>
      <trkpt lat="59.9792986" lon="17.7393715">
        <ele>25.1317</ele>
        <time>2012-02-25T15:35:54Z</time>
      </trkpt>
      <trkpt lat="59.9792381" lon="17.7394977">
        <ele>18.8831</ele>
        <time>2012-02-25T15:35:59Z</time>
      </trkpt>
      <trkpt lat="59.979223" lon="17.7395185">
        <ele>17.9218</ele>
        <time>2012-02-25T15:36:00Z</time>
      </trkpt>
      <trkpt lat="59.9791641" lon="17.7396216">
        <ele>13.1151</ele>
        <time>2012-02-25T15:36:06Z</time>
      </trkpt>
      <trkpt lat="59.9791065" lon="17.7396552">
        <ele>10.7118</ele>
        <time>2012-02-25T15:36:10Z</time>
      </trkpt>
      <trkpt lat="59.9790939" lon="17.7396579">
        <ele>10.2312</ele>
        <time>2012-02-25T15:36:11Z</time>
      </trkpt>
      <trkpt lat="59.9789639" lon="17.739748">
        <ele>5.90527</ele>
        <time>2012-02-25T15:36:18Z</time>
      </trkpt>
      <trkpt lat="59.9789296" lon="17.7397853">
        <ele>3.98267</ele>
        <time>2012-02-25T15:36:20Z</time>
      </trkpt>
      <trkpt lat="59.9788676" lon="17.7397872">
        <ele>2.06006</ele>
        <time>2012-02-25T15:36:25Z</time>
      </trkpt>
      <trkpt lat="59.9787449" lon="17.7398396">
        <ele>0</ele>
        <time>2012-02-25T15:36:32Z</time>
      </trkpt>
      <trkpt lat="59.9786018" lon="17.7395371">
        <ele>19.8444</ele>
        <time>2012-02-25T15:36:38Z</time>
      </trkpt>
      <trkpt lat="59.9785293" lon="17.7394817">
        <ele>24.651</ele>
        <time>2012-02-25T15:36:42Z</time>
      </trkpt>
      <trkpt lat="59.9784295" lon="17.7393852">
        <ele>29.9381</ele>
        <time>2012-02-25T15:36:49Z</time>
      </trkpt>
      <trkpt lat="59.9783185" lon="17.7393713">
        <ele>31.3801</ele>
        <time>2012-02-25T15:36:55Z</time>
      </trkpt>
      <trkpt lat="59.9782451" lon="17.7393459">
        <ele>32.3416</ele>
        <time>2012-02-25T15:37:00Z</time>
      </trkpt>
      <trkpt lat="59.9781697" lon="17.739287">
        <ele>33.7834</ele>
        <time>2012-02-25T15:37:06Z</time>
      </trkpt>
      <trkpt lat="59.9781159" lon="17.7392604">
        <ele>33.7834</ele>
        <time>2012-02-25T15:37:10Z</time>
      </trkpt>
      <trkpt lat="59.9780399" lon="17.7392115">
        <ele>33.3029</ele>
        <time>2012-02-25T15:37:16Z</time>
      </trkpt>
      <trkpt lat="59.9779948" lon="17.7391957">
        <ele>33.3029</ele>
        <time>2012-02-25T15:37:19Z</time>
      </trkpt>
      <trkpt lat="59.9779331" lon="17.7391611">
        <ele>32.8223</ele>
        <time>2012-02-25T15:37:24Z</time>
      </trkpt>
      <trkpt lat="59.977842" lon="17.7391295">
        <ele>32.3416</ele>
        <time>2012-02-25T15:37:30Z</time>
      </trkpt>
      <trkpt lat="59.9777487" lon="17.7391191">
        <ele>33.3029</ele>
        <time>2012-02-25T15:37:36Z</time>
      </trkpt>
      <trkpt lat="59.9777284" lon="17.7391139">
        <ele>33.3029</ele>
        <time>2012-02-25T15:37:38Z</time>
      </trkpt>
      <trkpt lat="59.9776675" lon="17.7390777">
        <ele>33.3029</ele>
        <time>2012-02-25T15:37:43Z</time>
      </trkpt>
      <trkpt lat="59.9775479" lon="17.7391133">
        <ele>32.8223</ele>
        <time>2012-02-25T15:37:49Z</time>
      </trkpt>
      <trkpt lat="59.9774551" lon="17.7391506">
        <ele>32.8223</ele>
        <time>2012-02-25T15:37:55Z</time>
      </trkpt>
      <trkpt lat="59.9773912" lon="17.7391901">
        <ele>32.3416</ele>
        <time>2012-02-25T15:38:00Z</time>
      </trkpt>
      <trkpt lat="59.9773349" lon="17.7392025">
        <ele>32.8223</ele>
        <time>2012-02-25T15:38:05Z</time>
      </trkpt>
      <trkpt lat="59.9772857" lon="17.7392334">
        <ele>33.3029</ele>
        <time>2012-02-25T15:38:09Z</time>
      </trkpt>
      <trkpt lat="59.9772002" lon="17.7392968">
        <ele>30.4188</ele>
        <time>2012-02-25T15:38:15Z</time>
      </trkpt>
      <trkpt lat="59.9771163" lon="17.7393508">
        <ele>30.8995</ele>
        <time>2012-02-25T15:38:21Z</time>
      </trkpt>
      <trkpt lat="59.9771009" lon="17.7393594">
        <ele>31.8607</ele>
        <time>2012-02-25T15:38:23Z</time>
      </trkpt>
      <trkpt lat="59.9770744" lon="17.7393615">
        <ele>33.7834</ele>
        <time>2012-02-25T15:38:26Z</time>
      </trkpt>
      <trkpt lat="59.9769872" lon="17.7393886">
        <ele>32.8223</ele>
        <time>2012-02-25T15:38:31Z</time>
      </trkpt>
      <trkpt lat="59.9769706" lon="17.7393919">
        <ele>32.3416</ele>
        <time>2012-02-25T15:38:32Z</time>
      </trkpt>
      <trkpt lat="59.9769019" lon="17.7394042">
        <ele>32.3416</ele>
        <time>2012-02-25T15:38:37Z</time>
      </trkpt>
      <trkpt lat="59.9767837" lon="17.7394341">
        <ele>32.3416</ele>
        <time>2012-02-25T15:38:44Z</time>
      </trkpt>
      <trkpt lat="59.9767205" lon="17.7394712">
        <ele>33.3029</ele>
        <time>2012-02-25T15:38:49Z</time>
      </trkpt>
      <trkpt lat="59.9766867" lon="17.7394839">
        <ele>34.2642</ele>
        <time>2012-02-25T15:38:52Z</time>
      </trkpt>
      <trkpt lat="59.9766268" lon="17.7394859">
        <ele>33.7834</ele>
        <time>2012-02-25T15:38:56Z</time>
      </trkpt>
      <trkpt lat="59.9765289" lon="17.7395661">
        <ele>34.7449</ele>
        <time>2012-02-25T15:39:03Z</time>
      </trkpt>
      <trkpt lat="59.9764709" lon="17.7396724">
        <ele>37.1481</ele>
        <time>2012-02-25T15:39:09Z</time>
      </trkpt>
      <trkpt lat="59.9763687" lon="17.7397054">
        <ele>35.7061</ele>
        <time>2012-02-25T15:39:15Z</time>
      </trkpt>
      <trkpt lat="59.9763332" lon="17.73969">
        <ele>35.7061</ele>
        <time>2012-02-25T15:39:17Z</time>
      </trkpt>
      <trkpt lat="59.9762453" lon="17.739635">
        <ele>34.2642</ele>
        <time>2012-02-25T15:39:22Z</time>
      </trkpt>
      <trkpt lat="59.9762061" lon="17.7395952">
        <ele>33.7834</ele>
        <time>2012-02-25T15:39:25Z</time>
      </trkpt>
      <trkpt lat="59.9760873" lon="17.7395302">
        <ele>33.3029</ele>
        <time>2012-02-25T15:39:31Z</time>
      </trkpt>
      <trkpt lat="59.9760658" lon="17.73951">
        <ele>33.3029</ele>
        <time>2012-02-25T15:39:32Z</time>
      </trkpt>
      <trkpt lat="59.9760342" lon="17.739472">
        <ele>32.3416</ele>
        <time>2012-02-25T15:39:34Z</time>
      </trkpt>
      <trkpt lat="59.975957" lon="17.7393446">
        <ele>27.0543</ele>
        <time>2012-02-25T15:39:41Z</time>
      </trkpt>
      <trkpt lat="59.9758752" lon="17.7392532">
        <ele>22.7283</ele>
        <time>2012-02-25T15:39:47Z</time>
      </trkpt>
      <trkpt lat="59.9757538" lon="17.7390689">
        <ele>19.8444</ele>
        <time>2012-02-25T15:39:56Z</time>
      </trkpt>
      <trkpt lat="59.9756885" lon="17.7389622">
        <ele>18.8831</ele>
        <time>2012-02-25T15:40:01Z</time>
      </trkpt>
      <trkpt lat="59.9756063" lon="17.7387978">
        <ele>17.4412</ele>
        <time>2012-02-25T15:40:09Z</time>
      </trkpt>
      <trkpt lat="59.9754818" lon="17.7385517">
        <ele>17.4412</ele>
        <time>2012-02-25T15:40:20Z</time>
      </trkpt>
      <trkpt lat="59.9754115" lon="17.738414">
        <ele>18.4023</ele>
        <time>2012-02-25T15:40:26Z</time>
      </trkpt>
      <trkpt lat="59.975311" lon="17.7382328">
        <ele>18.4023</ele>
        <time>2012-02-25T15:40:35Z</time>
      </trkpt>
      <trkpt lat="59.9752213" lon="17.7380767">
        <ele>18.8831</ele>
        <time>2012-02-25T15:40:43Z</time>
      </trkpt>
      <trkpt lat="59.9751121" lon="17.737894">
        <ele>19.8444</ele>
        <time>2012-02-25T15:40:52Z</time>
      </trkpt>
      <trkpt lat="59.9749976" lon="17.7377247">
        <ele>20.325</ele>
        <time>2012-02-25T15:41:01Z</time>
      </trkpt>
      <trkpt lat="59.9748669" lon="17.7374869">
        <ele>20.8057</ele>
        <time>2012-02-25T15:41:12Z</time>
      </trkpt>
      <trkpt lat="59.9747661" lon="17.7372964">
        <ele>21.767</ele>
        <time>2012-02-25T15:41:20Z</time>
      </trkpt>
      <trkpt lat="59.9746972" lon="17.7371186">
        <ele>21.767</ele>
        <time>2012-02-25T15:41:27Z</time>
      </trkpt>
      <trkpt lat="59.9746304" lon="17.7369358">
        <ele>21.767</ele>
        <time>2012-02-25T15:41:34Z</time>
      </trkpt>
      <trkpt lat="59.9745553" lon="17.7367491">
        <ele>21.2864</ele>
        <time>2012-02-25T15:41:41Z</time>
      </trkpt>
      <trkpt lat="59.9744724" lon="17.736466">
        <ele>21.767</ele>
        <time>2012-02-25T15:41:51Z</time>
      </trkpt>
      <trkpt lat="59.9744144" lon="17.7362363">
        <ele>22.2476</ele>
        <time>2012-02-25T15:41:59Z</time>
      </trkpt>
      <trkpt lat="59.9744043" lon="17.7361775">
        <ele>21.767</ele>
        <time>2012-02-25T15:42:01Z</time>
      </trkpt>
      <trkpt lat="59.9743719" lon="17.735962">
        <ele>21.767</ele>
        <time>2012-02-25T15:42:08Z</time>
      </trkpt>
      <trkpt lat="59.9743362" lon="17.7357598">
        <ele>21.767</ele>
        <time>2012-02-25T15:42:15Z</time>
      </trkpt>
      <trkpt lat="59.9743003" lon="17.7354856">
        <ele>21.767</ele>
        <time>2012-02-25T15:42:24Z</time>
      </trkpt>
      <trkpt lat="59.9742679" lon="17.7350625">
        <ele>22.7283</ele>
        <time>2012-02-25T15:42:37Z</time>
      </trkpt>
      <trkpt lat="59.9742503" lon="17.7347461">
        <ele>23.6896</ele>
        <time>2012-02-25T15:42:47Z</time>
      </trkpt>
      <trkpt lat="59.9742541" lon="17.7344757">
        <ele>24.1703</ele>
        <time>2012-02-25T15:42:55Z</time>
      </trkpt>
      <trkpt lat="59.9742601" lon="17.7343461">
        <ele>24.651</ele>
        <time>2012-02-25T15:42:59Z</time>
      </trkpt>
      <trkpt lat="59.9742621" lon="17.7341515">
        <ele>25.6123</ele>
        <time>2012-02-25T15:43:05Z</time>
      </trkpt>
      <trkpt lat="59.9742693" lon="17.733894">
        <ele>26.5736</ele>
        <time>2012-02-25T15:43:13Z</time>
      </trkpt>
      <trkpt lat="59.9742905" lon="17.7335552">
        <ele>28.0155</ele>
        <time>2012-02-25T15:43:23Z</time>
      </trkpt>
      <trkpt lat="59.9743076" lon="17.7332854">
        <ele>28.9769</ele>
        <time>2012-02-25T15:43:31Z</time>
      </trkpt>
      <trkpt lat="59.9743143" lon="17.732995">
        <ele>29.9381</ele>
        <time>2012-02-25T15:43:40Z</time>
      </trkpt>
      <trkpt lat="59.9743195" lon="17.7327279">
        <ele>30.8995</ele>
        <time>2012-02-25T15:43:48Z</time>
      </trkpt>
      <trkpt lat="59.9743087" lon="17.732319">
        <ele>32.3416</ele>
        <time>2012-02-25T15:44:01Z</time>
      </trkpt>
      <trkpt lat="59.9742998" lon="17.7319645">
        <ele>33.7834</ele>
        <time>2012-02-25T15:44:12Z</time>
      </trkpt>
      <trkpt lat="59.9742937" lon="17.7315832">
        <ele>34.7449</ele>
        <time>2012-02-25T15:44:24Z</time>
      </trkpt>
      <trkpt lat="59.9743031" lon="17.7312759">
        <ele>34.7449</ele>
        <time>2012-02-25T15:44:34Z</time>
      </trkpt>
      <trkpt lat="59.9743056" lon="17.7312476">
        <ele>34.7449</ele>
        <time>2012-02-25T15:44:35Z</time>
      </trkpt>
      <trkpt lat="59.9743181" lon="17.7310299">
        <ele>36.6675</ele>
        <time>2012-02-25T15:44:42Z</time>
      </trkpt>
      <trkpt lat="59.9743304" lon="17.7307479">
        <ele>39.0707</ele>
        <time>2012-02-25T15:44:50Z</time>
      </trkpt>
      <trkpt lat="59.9743413" lon="17.7304554">
        <ele>40.9934</ele>
        <time>2012-02-25T15:44:58Z</time>
      </trkpt>
      <trkpt lat="59.9743663" lon="17.7301612">
        <ele>40.9934</ele>
        <time>2012-02-25T15:45:07Z</time>
      </trkpt>
      <trkpt lat="59.9743917" lon="17.7298157">
        <ele>41.474</ele>
        <time>2012-02-25T15:45:18Z</time>
      </trkpt>
      <trkpt lat="59.9744112" lon="17.7295898">
        <ele>40.9934</ele>
        <time>2012-02-25T15:45:25Z</time>
      </trkpt>
      <trkpt lat="59.9744359" lon="17.7292868">
        <ele>39.0707</ele>
        <time>2012-02-25T15:45:35Z</time>
      </trkpt>
      <trkpt lat="59.9744315" lon="17.7290429">
        <ele>37.1481</ele>
        <time>2012-02-25T15:45:43Z</time>
      </trkpt>
      <trkpt lat="59.9744273" lon="17.7288429">
        <ele>35.2255</ele>
        <time>2012-02-25T15:45:50Z</time>
      </trkpt>
      <trkpt lat="59.974437" lon="17.728644">
        <ele>32.3416</ele>
        <time>2012-02-25T15:45:57Z</time>
      </trkpt>
      <trkpt lat="59.9744371" lon="17.7285269">
        <ele>31.3801</ele>
        <time>2012-02-25T15:46:01Z</time>
      </trkpt>
      <trkpt lat="59.9744382" lon="17.7281951">
        <ele>29.4575</ele>
        <time>2012-02-25T15:46:12Z</time>
      </trkpt>
      <trkpt lat="59.9744435" lon="17.7280144">
        <ele>28.9769</ele>
        <time>2012-02-25T15:46:18Z</time>
      </trkpt>
      <trkpt lat="59.9744421" lon="17.7277549">
        <ele>29.9381</ele>
        <time>2012-02-25T15:46:26Z</time>
      </trkpt>
      <trkpt lat="59.9744263" lon="17.7274335">
        <ele>32.3416</ele>
        <time>2012-02-25T15:46:36Z</time>
      </trkpt>
      <trkpt lat="59.9744174" lon="17.7271515">
        <ele>33.7834</ele>
        <time>2012-02-25T15:46:45Z</time>
      </trkpt>
      <trkpt lat="59.9744043" lon="17.7267989">
        <ele>35.2255</ele>
        <time>2012-02-25T15:46:56Z</time>
      </trkpt>
      <trkpt lat="59.9744071" lon="17.7266112">
        <ele>34.2642</ele>
        <time>2012-02-25T15:47:02Z</time>
      </trkpt>
      <trkpt lat="59.9744014" lon="17.726384">
        <ele>32.3416</ele>
        <time>2012-02-25T15:47:09Z</time>
      </trkpt>
      <trkpt lat="59.9744101" lon="17.7262788">
        <ele>29.4575</ele>
        <time>2012-02-25T15:47:13Z</time>
      </trkpt>
      <trkpt lat="59.9744081" lon="17.7261963">
        <ele>28.4962</ele>
        <time>2012-02-25T15:47:16Z</time>
      </trkpt>
      <trkpt lat="59.9743943" lon="17.7259741">
        <ele>26.0929</ele>
        <time>2012-02-25T15:47:24Z</time>
      </trkpt>
      <trkpt lat="59.9743833" lon="17.7257497">
        <ele>24.1703</ele>
        <time>2012-02-25T15:47:32Z</time>
      </trkpt>
      <trkpt lat="59.9743662" lon="17.7255048">
        <ele>21.767</ele>
        <time>2012-02-25T15:47:40Z</time>
      </trkpt>
      <trkpt lat="59.974337" lon="17.7252437">
        <ele>20.8057</ele>
        <time>2012-02-25T15:47:49Z</time>
      </trkpt>
      <trkpt lat="59.9743044" lon="17.725025">
        <ele>21.2864</ele>
        <time>2012-02-25T15:47:56Z</time>
      </trkpt>
      <trkpt lat="59.97426" lon="17.7247773">
        <ele>22.2476</ele>
        <time>2012-02-25T15:48:04Z</time>
      </trkpt>
      <trkpt lat="59.9742256" lon="17.7245567">
        <ele>22.7283</ele>
        <time>2012-02-25T15:48:11Z</time>
      </trkpt>
      <trkpt lat="59.974204" lon="17.7243253">
        <ele>20.8057</ele>
        <time>2012-02-25T15:48:19Z</time>
      </trkpt>
      <trkpt lat="59.9741862" lon="17.7241139">
        <ele>17.9218</ele>
        <time>2012-02-25T15:48:27Z</time>
      </trkpt>
      <trkpt lat="59.9741781" lon="17.7240289">
        <ele>16.9604</ele>
        <time>2012-02-25T15:48:30Z</time>
      </trkpt>
      <trkpt lat="59.9741629" lon="17.7238975">
        <ele>15.999</ele>
        <time>2012-02-25T15:48:34Z</time>
      </trkpt>
      <trkpt lat="59.9741052" lon="17.7235592">
        <ele>15.999</ele>
        <time>2012-02-25T15:48:45Z</time>
      </trkpt>
      <trkpt lat="59.9740642" lon="17.7233285">
        <ele>15.5184</ele>
        <time>2012-02-25T15:48:53Z</time>
      </trkpt>
      <trkpt lat="59.9740231" lon="17.7231271">
        <ele>14.557</ele>
        <time>2012-02-25T15:49:00Z</time>
      </trkpt>
      <trkpt lat="59.9740041" lon="17.7230251">
        <ele>14.557</ele>
        <time>2012-02-25T15:49:04Z</time>
      </trkpt>
      <trkpt lat="59.9739659" lon="17.7229291">
        <ele>14.557</ele>
        <time>2012-02-25T15:49:08Z</time>
      </trkpt>
      <trkpt lat="59.9739202" lon="17.7227933">
        <ele>15.999</ele>
        <time>2012-02-25T15:49:13Z</time>
      </trkpt>
      <trkpt lat="59.9738663" lon="17.7226102">
        <ele>15.999</ele>
        <time>2012-02-25T15:49:20Z</time>
      </trkpt>
      <trkpt lat="59.9738107" lon="17.7224449">
        <ele>16.4797</ele>
        <time>2012-02-25T15:49:27Z</time>
      </trkpt>
      <trkpt lat="59.9737413" lon="17.7222444">
        <ele>17.4412</ele>
        <time>2012-02-25T15:49:35Z</time>
      </trkpt>
      <trkpt lat="59.9737247" lon="17.7221973">
        <ele>17.4412</ele>
        <time>2012-02-25T15:49:37Z</time>
      </trkpt>
      <trkpt lat="59.973675" lon="17.722044">
        <ele>18.8831</ele>
        <time>2012-02-25T15:49:43Z</time>
      </trkpt>
      <trkpt lat="59.9735897" lon="17.721843">
        <ele>20.325</ele>
        <time>2012-02-25T15:49:51Z</time>
      </trkpt>
      <trkpt lat="59.9734952" lon="17.7216477">
        <ele>21.767</ele>
        <time>2012-02-25T15:49:59Z</time>
      </trkpt>
      <trkpt lat="59.9734078" lon="17.7214643">
        <ele>21.767</ele>
        <time>2012-02-25T15:50:07Z</time>
      </trkpt>
      <trkpt lat="59.9733144" lon="17.7213113">
        <ele>21.767</ele>
        <time>2012-02-25T15:50:14Z</time>
      </trkpt>
      <trkpt lat="59.9732416" lon="17.7212162">
        <ele>22.7283</ele>
        <time>2012-02-25T15:50:19Z</time>
      </trkpt>
      <trkpt lat="59.9731448" lon="17.7210523">
        <ele>23.209</ele>
        <time>2012-02-25T15:50:27Z</time>
      </trkpt>
      <trkpt lat="59.9731178" lon="17.7210134">
        <ele>23.6896</ele>
        <time>2012-02-25T15:50:29Z</time>
      </trkpt>
      <trkpt lat="59.9730632" lon="17.7209271">
        <ele>24.1703</ele>
        <time>2012-02-25T15:50:34Z</time>
      </trkpt>
      <trkpt lat="59.9729646" lon="17.7208075">
        <ele>26.0929</ele>
        <time>2012-02-25T15:50:41Z</time>
      </trkpt>
      <trkpt lat="59.9729053" lon="17.7207539">
        <ele>27.5349</ele>
        <time>2012-02-25T15:50:45Z</time>
      </trkpt>
      <trkpt lat="59.9728353" lon="17.720675">
        <ele>29.4575</ele>
        <time>2012-02-25T15:50:50Z</time>
      </trkpt>
      <trkpt lat="59.972721" lon="17.7205672">
        <ele>31.8607</ele>
        <time>2012-02-25T15:50:58Z</time>
      </trkpt>
      <trkpt lat="59.9726597" lon="17.7204727">
        <ele>32.8223</ele>
        <time>2012-02-25T15:51:03Z</time>
      </trkpt>
      <trkpt lat="59.9725976" lon="17.7204252">
        <ele>33.7834</ele>
        <time>2012-02-25T15:51:07Z</time>
      </trkpt>
      <trkpt lat="59.9724752" lon="17.7203149">
        <ele>35.7061</ele>
        <time>2012-02-25T15:51:15Z</time>
      </trkpt>
      <trkpt lat="59.9723915" lon="17.7202335">
        <ele>36.6675</ele>
        <time>2012-02-25T15:51:21Z</time>
      </trkpt>
      <trkpt lat="59.9723211" lon="17.7201639">
        <ele>36.6675</ele>
        <time>2012-02-25T15:51:26Z</time>
      </trkpt>
      <trkpt lat="59.9722215" lon="17.7200811">
        <ele>36.1868</ele>
        <time>2012-02-25T15:51:33Z</time>
      </trkpt>
      <trkpt lat="59.9721429" lon="17.7199852">
        <ele>36.6675</ele>
        <time>2012-02-25T15:51:39Z</time>
      </trkpt>
      <trkpt lat="59.9721049" lon="17.7199456">
        <ele>36.1868</ele>
        <time>2012-02-25T15:51:42Z</time>
      </trkpt>
      <trkpt lat="59.9720614" lon="17.7198729">
        <ele>35.7061</ele>
        <time>2012-02-25T15:51:46Z</time>
      </trkpt>
      <trkpt lat="59.9719625" lon="17.719808">
        <ele>36.1868</ele>
        <time>2012-02-25T15:51:52Z</time>
      </trkpt>
      <trkpt lat="59.9718459" lon="17.7197466">
        <ele>36.6675</ele>
        <time>2012-02-25T15:51:59Z</time>
      </trkpt>
      <trkpt lat="59.9717684" lon="17.7196466">
        <ele>36.1868</ele>
        <time>2012-02-25T15:52:05Z</time>
      </trkpt>
      <trkpt lat="59.9717005" lon="17.7195708">
        <ele>35.2255</ele>
        <time>2012-02-25T15:52:10Z</time>
      </trkpt>
      <trkpt lat="59.9715962" lon="17.719459">
        <ele>32.8223</ele>
        <time>2012-02-25T15:52:18Z</time>
      </trkpt>
      <trkpt lat="59.9715095" lon="17.7193763">
        <ele>32.3416</ele>
        <time>2012-02-25T15:52:24Z</time>
      </trkpt>
      <trkpt lat="59.9714048" lon="17.7192865">
        <ele>32.3416</ele>
        <time>2012-02-25T15:52:31Z</time>
      </trkpt>
      <trkpt lat="59.9713017" lon="17.7191981">
        <ele>33.3029</ele>
        <time>2012-02-25T15:52:38Z</time>
      </trkpt>
      <trkpt lat="59.9711487" lon="17.719057">
        <ele>32.8223</ele>
        <time>2012-02-25T15:52:48Z</time>
      </trkpt>
      <trkpt lat="59.9710445" lon="17.7189701">
        <ele>32.8223</ele>
        <time>2012-02-25T15:52:55Z</time>
      </trkpt>
      <trkpt lat="59.9709792" lon="17.7188925">
        <ele>32.8223</ele>
        <time>2012-02-25T15:53:00Z</time>
      </trkpt>
      <trkpt lat="59.9709059" lon="17.7188287">
        <ele>33.3029</ele>
        <time>2012-02-25T15:53:05Z</time>
      </trkpt>
      <trkpt lat="59.9708071" lon="17.7187298">
        <ele>32.3416</ele>
        <time>2012-02-25T15:53:12Z</time>
      </trkpt>
      <trkpt lat="59.9706588" lon="17.7185883">
        <ele>32.8223</ele>
        <time>2012-02-25T15:53:22Z</time>
      </trkpt>
      <trkpt lat="59.970542" lon="17.7184871">
        <ele>32.3416</ele>
        <time>2012-02-25T15:53:30Z</time>
      </trkpt>
      <trkpt lat="59.9704345" lon="17.7183805">
        <ele>31.8607</ele>
        <time>2012-02-25T15:53:38Z</time>
      </trkpt>
      <trkpt lat="59.9703408" lon="17.71829">
        <ele>31.3801</ele>
        <time>2012-02-25T15:53:45Z</time>
      </trkpt>
      <trkpt lat="59.970235" lon="17.7181786">
        <ele>30.8995</ele>
        <time>2012-02-25T15:53:53Z</time>
      </trkpt>
      <trkpt lat="59.9701312" lon="17.7181045">
        <ele>31.3801</ele>
        <time>2012-02-25T15:54:00Z</time>
      </trkpt>
      <trkpt lat="59.9700313" lon="17.7180165">
        <ele>31.3801</ele>
        <time>2012-02-25T15:54:07Z</time>
      </trkpt>
      <trkpt lat="59.9699433" lon="17.7179553">
        <ele>31.3801</ele>
        <time>2012-02-25T15:54:13Z</time>
      </trkpt>
      <trkpt lat="59.9698051" lon="17.7178273">
        <ele>30.8995</ele>
        <time>2012-02-25T15:54:23Z</time>
      </trkpt>
      <trkpt lat="59.9697394" lon="17.7177676">
        <ele>30.8995</ele>
        <time>2012-02-25T15:54:28Z</time>
      </trkpt>
      <trkpt lat="59.9696009" lon="17.7176723">
        <ele>30.4188</ele>
        <time>2012-02-25T15:54:37Z</time>
      </trkpt>
      <trkpt lat="59.9694864" lon="17.7175975">
        <ele>29.9381</ele>
        <time>2012-02-25T15:54:45Z</time>
      </trkpt>
      <trkpt lat="59.969457" lon="17.7175768">
        <ele>29.9381</ele>
        <time>2012-02-25T15:54:47Z</time>
      </trkpt>
      <trkpt lat="59.9694024" lon="17.7175394">
        <ele>29.4575</ele>
        <time>2012-02-25T15:54:51Z</time>
      </trkpt>
      <trkpt lat="59.9693166" lon="17.717491">
        <ele>29.9381</ele>
        <time>2012-02-25T15:54:57Z</time>
      </trkpt>
      <trkpt lat="59.9691939" lon="17.7174507">
        <ele>30.4188</ele>
        <time>2012-02-25T15:55:05Z</time>
      </trkpt>
      <trkpt lat="59.9690794" lon="17.7174201">
        <ele>30.8995</ele>
        <time>2012-02-25T15:55:12Z</time>
      </trkpt>
      <trkpt lat="59.9690346" lon="17.7173986">
        <ele>31.3801</ele>
        <time>2012-02-25T15:55:15Z</time>
      </trkpt>
      <trkpt lat="59.9689623" lon="17.7173709">
        <ele>31.3801</ele>
        <time>2012-02-25T15:55:20Z</time>
      </trkpt>
      <trkpt lat="59.9689451" lon="17.7173657">
        <ele>31.8607</ele>
        <time>2012-02-25T15:55:21Z</time>
      </trkpt>
      <trkpt lat="59.9688323" lon="17.7173389">
        <ele>33.3029</ele>
        <time>2012-02-25T15:55:28Z</time>
      </trkpt>
      <trkpt lat="59.9688218" lon="17.7173327">
        <ele>33.3029</ele>
        <time>2012-02-25T15:55:29Z</time>
      </trkpt>
      <trkpt lat="59.9687894" lon="17.7172545">
        <ele>32.3416</ele>
        <time>2012-02-25T15:55:31Z</time>
      </trkpt>
      <trkpt lat="59.9688038" lon="17.7171975">
        <ele>32.3416</ele>
        <time>2012-02-25T15:55:33Z</time>
      </trkpt>
      <trkpt lat="59.968874" lon="17.7171874">
        <ele>32.3416</ele>
        <time>2012-02-25T15:55:37Z</time>
      </trkpt>
      <trkpt lat="59.9688937" lon="17.7171955">
        <ele>32.3416</ele>
        <time>2012-02-25T15:55:38Z</time>
      </trkpt>
      <trkpt lat="59.9690726" lon="17.7172804">
        <ele>31.8607</ele>
        <time>2012-02-25T15:55:48Z</time>
      </trkpt>
      <trkpt lat="59.9691923" lon="17.7173281">
        <ele>31.3801</ele>
        <time>2012-02-25T15:55:55Z</time>
      </trkpt>
      <trkpt lat="59.9692848" lon="17.7173481">
        <ele>32.3416</ele>
        <time>2012-02-25T15:56:01Z</time>
      </trkpt>
      <trkpt lat="59.9693993" lon="17.7174058">
        <ele>33.7834</ele>
        <time>2012-02-25T15:56:08Z</time>
      </trkpt>
      <trkpt lat="59.9695182" lon="17.7174621">
        <ele>34.2642</ele>
        <time>2012-02-25T15:56:16Z</time>
      </trkpt>
      <trkpt lat="59.969617" lon="17.717507">
        <ele>34.7449</ele>
        <time>2012-02-25T15:56:23Z</time>
      </trkpt>
      <trkpt lat="59.9697363" lon="17.7175771">
        <ele>35.2255</ele>
        <time>2012-02-25T15:56:31Z</time>
      </trkpt>
      <trkpt lat="59.9698234" lon="17.7176388">
        <ele>34.7449</ele>
        <time>2012-02-25T15:56:37Z</time>
      </trkpt>
      <trkpt lat="59.9699346" lon="17.7177321">
        <ele>33.7834</ele>
        <time>2012-02-25T15:56:45Z</time>
      </trkpt>
      <trkpt lat="59.9700196" lon="17.7178044">
        <ele>33.3029</ele>
        <time>2012-02-25T15:56:51Z</time>
      </trkpt>
      <trkpt lat="59.9701372" lon="17.7179019">
        <ele>31.8607</ele>
        <time>2012-02-25T15:56:59Z</time>
      </trkpt>
      <trkpt lat="59.9702388" lon="17.7180108">
        <ele>31.3801</ele>
        <time>2012-02-25T15:57:07Z</time>
      </trkpt>
      <trkpt lat="59.9702849" lon="17.7180512">
        <ele>31.8607</ele>
        <time>2012-02-25T15:57:11Z</time>
      </trkpt>
      <trkpt lat="59.9703947" lon="17.718162">
        <ele>31.3801</ele>
        <time>2012-02-25T15:57:19Z</time>
      </trkpt>
      <trkpt lat="59.970475" lon="17.7182374">
        <ele>31.3801</ele>
        <time>2012-02-25T15:57:25Z</time>
      </trkpt>
      <trkpt lat="59.9705977" lon="17.7183472">
        <ele>33.3029</ele>
        <time>2012-02-25T15:57:33Z</time>
      </trkpt>
      <trkpt lat="59.9706654" lon="17.7184294">
        <ele>33.7834</ele>
        <time>2012-02-25T15:57:39Z</time>
      </trkpt>
      <trkpt lat="59.9707629" lon="17.7185157">
        <ele>34.7449</ele>
        <time>2012-02-25T15:57:46Z</time>
      </trkpt>
      <trkpt lat="59.9708596" lon="17.7186122">
        <ele>34.2642</ele>
        <time>2012-02-25T15:57:53Z</time>
      </trkpt>
      <trkpt lat="59.9709578" lon="17.7187028">
        <ele>33.3029</ele>
        <time>2012-02-25T15:58:00Z</time>
      </trkpt>
      <trkpt lat="59.9710779" lon="17.7188126">
        <ele>33.3029</ele>
        <time>2012-02-25T15:58:08Z</time>
      </trkpt>
      <trkpt lat="59.9711975" lon="17.718927">
        <ele>34.2642</ele>
        <time>2012-02-25T15:58:16Z</time>
      </trkpt>
      <trkpt lat="59.9712975" lon="17.7190183">
        <ele>35.2255</ele>
        <time>2012-02-25T15:58:23Z</time>
      </trkpt>
      <trkpt lat="59.9714104" lon="17.7191149">
        <ele>35.2255</ele>
        <time>2012-02-25T15:58:31Z</time>
      </trkpt>
      <trkpt lat="59.9715123" lon="17.719211">
        <ele>34.2642</ele>
        <time>2012-02-25T15:58:39Z</time>
      </trkpt>
      <trkpt lat="59.9716327" lon="17.7193232">
        <ele>32.8223</ele>
        <time>2012-02-25T15:58:48Z</time>
      </trkpt>
      <trkpt lat="59.9717378" lon="17.7194185">
        <ele>32.8223</ele>
        <time>2012-02-25T15:58:56Z</time>
      </trkpt>
      <trkpt lat="59.9718482" lon="17.7195257">
        <ele>31.8607</ele>
        <time>2012-02-25T15:59:04Z</time>
      </trkpt>
      <trkpt lat="59.972003" lon="17.7196573">
        <ele>31.8607</ele>
        <time>2012-02-25T15:59:15Z</time>
      </trkpt>
      <trkpt lat="59.9720828" lon="17.7197117">
        <ele>32.3416</ele>
        <time>2012-02-25T15:59:21Z</time>
      </trkpt>
      <trkpt lat="59.9721688" lon="17.7197865">
        <ele>33.3029</ele>
        <time>2012-02-25T15:59:27Z</time>
      </trkpt>
      <trkpt lat="59.9722512" lon="17.7198686">
        <ele>33.3029</ele>
        <time>2012-02-25T15:59:34Z</time>
      </trkpt>
      <trkpt lat="59.972368" lon="17.7199583">
        <ele>33.3029</ele>
        <time>2012-02-25T15:59:42Z</time>
      </trkpt>
      <trkpt lat="59.9724535" lon="17.7200367">
        <ele>33.7834</ele>
        <time>2012-02-25T15:59:48Z</time>
      </trkpt>
      <trkpt lat="59.9725561" lon="17.720136">
        <ele>33.7834</ele>
        <time>2012-02-25T15:59:55Z</time>
      </trkpt>
      <trkpt lat="59.972645" lon="17.7202154">
        <ele>34.7449</ele>
        <time>2012-02-25T16:00:01Z</time>
      </trkpt>
      <trkpt lat="59.9727519" lon="17.7203294">
        <ele>34.7449</ele>
        <time>2012-02-25T16:00:09Z</time>
      </trkpt>
      <trkpt lat="59.9728629" lon="17.7204483">
        <ele>34.2642</ele>
        <time>2012-02-25T16:00:17Z</time>
      </trkpt>
      <trkpt lat="59.9729949" lon="17.7206101">
        <ele>34.7449</ele>
        <time>2012-02-25T16:00:27Z</time>
      </trkpt>
      <trkpt lat="59.9730768" lon="17.7207272">
        <ele>35.2255</ele>
        <time>2012-02-25T16:00:34Z</time>
      </trkpt>
      <trkpt lat="59.9731634" lon="17.7208439">
        <ele>37.6287</ele>
        <time>2012-02-25T16:00:41Z</time>
      </trkpt>
      <trkpt lat="59.973225" lon="17.7209701">
        <ele>40.0321</ele>
        <time>2012-02-25T16:00:48Z</time>
      </trkpt>
      <trkpt lat="59.9732499" lon="17.7210027">
        <ele>40.9934</ele>
        <time>2012-02-25T16:00:50Z</time>
      </trkpt>
      <trkpt lat="59.9732681" lon="17.7210393">
        <ele>41.9547</ele>
        <time>2012-02-25T16:00:52Z</time>
      </trkpt>
      <trkpt lat="59.9733183" lon="17.7211659">
        <ele>40.0321</ele>
        <time>2012-02-25T16:00:58Z</time>
      </trkpt>
      <trkpt lat="59.9733772" lon="17.7212686">
        <ele>39.5513</ele>
        <time>2012-02-25T16:01:03Z</time>
      </trkpt>
      <trkpt lat="59.9734767" lon="17.721444">
        <ele>38.1094</ele>
        <time>2012-02-25T16:01:11Z</time>
      </trkpt>
      <trkpt lat="59.9734918" lon="17.7214628">
        <ele>38.1094</ele>
        <time>2012-02-25T16:01:12Z</time>
      </trkpt>
      <trkpt lat="59.9735501" lon="17.7216016">
        <ele>39.5513</ele>
        <time>2012-02-25T16:01:18Z</time>
      </trkpt>
      <trkpt lat="59.973604" lon="17.7217529">
        <ele>39.0707</ele>
        <time>2012-02-25T16:01:24Z</time>
      </trkpt>
      <trkpt lat="59.973673" lon="17.7219325">
        <ele>38.1094</ele>
        <time>2012-02-25T16:01:31Z</time>
      </trkpt>
      <trkpt lat="59.9737373" lon="17.7220823">
        <ele>37.6287</ele>
        <time>2012-02-25T16:01:37Z</time>
      </trkpt>
      <trkpt lat="59.9738253" lon="17.7222521">
        <ele>37.6287</ele>
        <time>2012-02-25T16:01:44Z</time>
      </trkpt>
      <trkpt lat="59.973883" lon="17.7224397">
        <ele>37.1481</ele>
        <time>2012-02-25T16:01:51Z</time>
      </trkpt>
      <trkpt lat="59.9739299" lon="17.7226396">
        <ele>36.1868</ele>
        <time>2012-02-25T16:01:58Z</time>
      </trkpt>
      <trkpt lat="59.9739783" lon="17.7228631">
        <ele>34.7449</ele>
        <time>2012-02-25T16:02:06Z</time>
      </trkpt>
      <trkpt lat="59.9740321" lon="17.7231184">
        <ele>33.7834</ele>
        <time>2012-02-25T16:02:15Z</time>
      </trkpt>
      <trkpt lat="59.9740655" lon="17.7233078">
        <ele>32.8223</ele>
        <time>2012-02-25T16:02:22Z</time>
      </trkpt>
      <trkpt lat="59.9741013" lon="17.7234933">
        <ele>31.8607</ele>
        <time>2012-02-25T16:02:28Z</time>
      </trkpt>
      <trkpt lat="59.9741406" lon="17.7236994">
        <ele>31.3801</ele>
        <time>2012-02-25T16:02:35Z</time>
      </trkpt>
      <trkpt lat="59.9741687" lon="17.7238767">
        <ele>30.4188</ele>
        <time>2012-02-25T16:02:41Z</time>
      </trkpt>
      <trkpt lat="59.9742046" lon="17.7240557">
        <ele>29.4575</ele>
        <time>2012-02-25T16:02:47Z</time>
      </trkpt>
      <trkpt lat="59.9742144" lon="17.7241156">
        <ele>28.9769</ele>
        <time>2012-02-25T16:02:49Z</time>
      </trkpt>
      <trkpt lat="59.9742422" lon="17.7243538">
        <ele>26.0929</ele>
        <time>2012-02-25T16:02:57Z</time>
      </trkpt>
      <trkpt lat="59.9742788" lon="17.7245878">
        <ele>24.1703</ele>
        <time>2012-02-25T16:03:05Z</time>
      </trkpt>
      <trkpt lat="59.9742964" lon="17.724646">
        <ele>24.1703</ele>
        <time>2012-02-25T16:03:07Z</time>
      </trkpt>
      <trkpt lat="59.9743269" lon="17.7248972">
        <ele>23.6896</ele>
        <time>2012-02-25T16:03:15Z</time>
      </trkpt>
      <trkpt lat="59.9743464" lon="17.7250767">
        <ele>23.6896</ele>
        <time>2012-02-25T16:03:21Z</time>
      </trkpt>
      <trkpt lat="59.9743486" lon="17.7252899">
        <ele>22.2476</ele>
        <time>2012-02-25T16:03:28Z</time>
      </trkpt>
      <trkpt lat="59.9743574" lon="17.7254389">
        <ele>20.8057</ele>
        <time>2012-02-25T16:03:33Z</time>
      </trkpt>
      <trkpt lat="59.9743746" lon="17.7256737">
        <ele>19.8444</ele>
        <time>2012-02-25T16:03:41Z</time>
      </trkpt>
      <trkpt lat="59.9743798" lon="17.7257993">
        <ele>18.8831</ele>
        <time>2012-02-25T16:03:45Z</time>
      </trkpt>
      <trkpt lat="59.9743948" lon="17.7260119">
        <ele>15.999</ele>
        <time>2012-02-25T16:03:52Z</time>
      </trkpt>
      <trkpt lat="59.9744005" lon="17.7260694">
        <ele>15.0377</ele>
        <time>2012-02-25T16:03:54Z</time>
      </trkpt>
      <trkpt lat="59.9744171" lon="17.7262746">
        <ele>13.1151</ele>
        <time>2012-02-25T16:04:01Z</time>
      </trkpt>
      <trkpt lat="59.9744469" lon="17.7264833">
        <ele>13.1151</ele>
        <time>2012-02-25T16:04:08Z</time>
      </trkpt>
      <trkpt lat="59.9744512" lon="17.7265803">
        <ele>13.5958</ele>
        <time>2012-02-25T16:04:11Z</time>
      </trkpt>
      <trkpt lat="59.9744554" lon="17.7266444">
        <ele>14.0764</ele>
        <time>2012-02-25T16:04:13Z</time>
      </trkpt>
      <trkpt lat="59.9744492" lon="17.7267689">
        <ele>14.0764</ele>
        <time>2012-02-25T16:04:17Z</time>
      </trkpt>
      <trkpt lat="59.9744719" lon="17.7269438">
        <ele>13.1151</ele>
        <time>2012-02-25T16:04:23Z</time>
      </trkpt>
      <trkpt lat="59.9744694" lon="17.727074">
        <ele>12.1538</ele>
        <time>2012-02-25T16:04:28Z</time>
      </trkpt>
      <trkpt lat="59.9744698" lon="17.7273323">
        <ele>12.6344</ele>
        <time>2012-02-25T16:04:36Z</time>
      </trkpt>
      <trkpt lat="59.9744967" lon="17.7275008">
        <ele>11.1925</ele>
        <time>2012-02-25T16:04:42Z</time>
      </trkpt>
      <trkpt lat="59.9745183" lon="17.7276198">
        <ele>10.2312</ele>
        <time>2012-02-25T16:04:46Z</time>
      </trkpt>
      <trkpt lat="59.9745204" lon="17.7277012">
        <ele>9.2699</ele>
        <time>2012-02-25T16:04:49Z</time>
      </trkpt>
      <trkpt lat="59.9745038" lon="17.7278285">
        <ele>9.75061</ele>
        <time>2012-02-25T16:04:53Z</time>
      </trkpt>
      <trkpt lat="59.9744764" lon="17.7280353">
        <ele>11.1925</ele>
        <time>2012-02-25T16:04:59Z</time>
      </trkpt>
      <trkpt lat="59.974475" lon="17.7282615">
        <ele>13.5958</ele>
        <time>2012-02-25T16:05:06Z</time>
      </trkpt>
      <trkpt lat="59.9744711" lon="17.7284834">
        <ele>15.0377</ele>
        <time>2012-02-25T16:05:13Z</time>
      </trkpt>
      <trkpt lat="59.9744703" lon="17.7285434">
        <ele>15.5184</ele>
        <time>2012-02-25T16:05:15Z</time>
      </trkpt>
      <trkpt lat="59.9744781" lon="17.7287347">
        <ele>16.9604</ele>
        <time>2012-02-25T16:05:21Z</time>
      </trkpt>
      <trkpt lat="59.9744801" lon="17.7288279">
        <ele>16.9604</ele>
        <time>2012-02-25T16:05:24Z</time>
      </trkpt>
      <trkpt lat="59.9744869" lon="17.7291356">
        <ele>19.3638</ele>
        <time>2012-02-25T16:05:34Z</time>
      </trkpt>
      <trkpt lat="59.9744922" lon="17.7294852">
        <ele>21.2864</ele>
        <time>2012-02-25T16:05:45Z</time>
      </trkpt>
      <trkpt lat="59.9744781" lon="17.7297063">
        <ele>21.767</ele>
        <time>2012-02-25T16:05:52Z</time>
      </trkpt>
      <trkpt lat="59.9744485" lon="17.7298818">
        <ele>17.9218</ele>
        <time>2012-02-25T16:05:58Z</time>
      </trkpt>
      <trkpt lat="59.9744428" lon="17.7299544">
        <ele>16.9604</ele>
        <time>2012-02-25T16:06:01Z</time>
      </trkpt>
      <trkpt lat="59.9744268" lon="17.7301882">
        <ele>17.4412</ele>
        <time>2012-02-25T16:06:09Z</time>
      </trkpt>
      <trkpt lat="59.9744128" lon="17.7304026">
        <ele>17.9218</ele>
        <time>2012-02-25T16:06:16Z</time>
      </trkpt>
      <trkpt lat="59.9743857" lon="17.7307314">
        <ele>19.3638</ele>
        <time>2012-02-25T16:06:26Z</time>
      </trkpt>
      <trkpt lat="59.974378" lon="17.730976">
        <ele>20.8057</ele>
        <time>2012-02-25T16:06:34Z</time>
      </trkpt>
      <trkpt lat="59.974366" lon="17.7312691">
        <ele>22.2476</ele>
        <time>2012-02-25T16:06:44Z</time>
      </trkpt>
      <trkpt lat="59.9743622" lon="17.7315122">
        <ele>24.1703</ele>
        <time>2012-02-25T16:06:52Z</time>
      </trkpt>
      <trkpt lat="59.9743615" lon="17.731814">
        <ele>25.1317</ele>
        <time>2012-02-25T16:07:02Z</time>
      </trkpt>
      <trkpt lat="59.9743683" lon="17.732143">
        <ele>26.5736</ele>
        <time>2012-02-25T16:07:13Z</time>
      </trkpt>
      <trkpt lat="59.9743854" lon="17.7323455">
        <ele>27.0543</ele>
        <time>2012-02-25T16:07:20Z</time>
      </trkpt>
      <trkpt lat="59.9743894" lon="17.7326596">
        <ele>27.0543</ele>
        <time>2012-02-25T16:07:31Z</time>
      </trkpt>
      <trkpt lat="59.9743859" lon="17.7329836">
        <ele>27.0543</ele>
        <time>2012-02-25T16:07:42Z</time>
      </trkpt>
      <trkpt lat="59.9743786" lon="17.7332138">
        <ele>27.0543</ele>
        <time>2012-02-25T16:07:50Z</time>
      </trkpt>
      <trkpt lat="59.9743844" lon="17.7335073">
        <ele>28.4962</ele>
        <time>2012-02-25T16:07:59Z</time>
      </trkpt>
      <trkpt lat="59.9743563" lon="17.7338094">
        <ele>28.4962</ele>
        <time>2012-02-25T16:08:09Z</time>
      </trkpt>
      <trkpt lat="59.9743453" lon="17.734054">
        <ele>28.4962</ele>
        <time>2012-02-25T16:08:17Z</time>
      </trkpt>
      <trkpt lat="59.9743375" lon="17.7343054">
        <ele>28.4962</ele>
        <time>2012-02-25T16:08:25Z</time>
      </trkpt>
      <trkpt lat="59.974336" lon="17.7346086">
        <ele>29.9381</ele>
        <time>2012-02-25T16:08:35Z</time>
      </trkpt>
      <trkpt lat="59.9743615" lon="17.7349108">
        <ele>32.3416</ele>
        <time>2012-02-25T16:08:45Z</time>
      </trkpt>
      <trkpt lat="59.9743957" lon="17.7351793">
        <ele>34.7449</ele>
        <time>2012-02-25T16:08:54Z</time>
      </trkpt>
      <trkpt lat="59.9744279" lon="17.7354698">
        <ele>35.7061</ele>
        <time>2012-02-25T16:09:04Z</time>
      </trkpt>
      <trkpt lat="59.9744666" lon="17.7357791">
        <ele>35.2255</ele>
        <time>2012-02-25T16:09:15Z</time>
      </trkpt>
      <trkpt lat="59.9745268" lon="17.7360941">
        <ele>33.7834</ele>
        <time>2012-02-25T16:09:27Z</time>
      </trkpt>
      <trkpt lat="59.9745877" lon="17.7363483">
        <ele>34.7449</ele>
        <time>2012-02-25T16:09:36Z</time>
      </trkpt>
      <trkpt lat="59.9746433" lon="17.7365548">
        <ele>34.2642</ele>
        <time>2012-02-25T16:09:44Z</time>
      </trkpt>
      <trkpt lat="59.97472" lon="17.7368083">
        <ele>33.3029</ele>
        <time>2012-02-25T16:09:54Z</time>
      </trkpt>
      <trkpt lat="59.9747847" lon="17.7369886">
        <ele>31.8607</ele>
        <time>2012-02-25T16:10:02Z</time>
      </trkpt>
      <trkpt lat="59.9748514" lon="17.7371429">
        <ele>30.8995</ele>
        <time>2012-02-25T16:10:09Z</time>
      </trkpt>
      <trkpt lat="59.9749272" lon="17.7373133">
        <ele>30.4188</ele>
        <time>2012-02-25T16:10:17Z</time>
      </trkpt>
      <trkpt lat="59.975022" lon="17.737475">
        <ele>31.3801</ele>
        <time>2012-02-25T16:10:25Z</time>
      </trkpt>
      <trkpt lat="59.9751295" lon="17.7376335">
        <ele>32.3416</ele>
        <time>2012-02-25T16:10:33Z</time>
      </trkpt>
      <trkpt lat="59.9752166" lon="17.7377644">
        <ele>32.3416</ele>
        <time>2012-02-25T16:10:40Z</time>
      </trkpt>
      <trkpt lat="59.97532" lon="17.7379299">
        <ele>31.8607</ele>
        <time>2012-02-25T16:10:49Z</time>
      </trkpt>
      <trkpt lat="59.9754075" lon="17.7380883">
        <ele>30.4188</ele>
        <time>2012-02-25T16:10:57Z</time>
      </trkpt>
      <trkpt lat="59.9754612" lon="17.738156">
        <ele>29.9381</ele>
        <time>2012-02-25T16:11:00Z</time>
      </trkpt>
      <trkpt lat="59.9755327" lon="17.7382654">
        <ele>29.9381</ele>
        <time>2012-02-25T16:11:05Z</time>
      </trkpt>
      <trkpt lat="59.9755503" lon="17.7383245">
        <ele>27.5349</ele>
        <time>2012-02-25T16:11:07Z</time>
      </trkpt>
      <trkpt lat="59.9755805" lon="17.738445">
        <ele>23.209</ele>
        <time>2012-02-25T16:11:12Z</time>
      </trkpt>
      <trkpt lat="59.9756068" lon="17.738469">
        <ele>22.7283</ele>
        <time>2012-02-25T16:11:14Z</time>
      </trkpt>
      <trkpt lat="59.975729" lon="17.738624">
        <ele>24.1703</ele>
        <time>2012-02-25T16:11:22Z</time>
      </trkpt>
      <trkpt lat="59.9758016" lon="17.7387224">
        <ele>25.1317</ele>
        <time>2012-02-25T16:11:27Z</time>
      </trkpt>
      <trkpt lat="59.975826" lon="17.7387798">
        <ele>25.1317</ele>
        <time>2012-02-25T16:11:30Z</time>
      </trkpt>
      <trkpt lat="59.975857" lon="17.7388233">
        <ele>26.0929</ele>
        <time>2012-02-25T16:11:32Z</time>
      </trkpt>
      <trkpt lat="59.9759227" lon="17.7389316">
        <ele>28.0155</ele>
        <time>2012-02-25T16:11:38Z</time>
      </trkpt>
      <trkpt lat="59.9759689" lon="17.7390057">
        <ele>28.9769</ele>
        <time>2012-02-25T16:11:42Z</time>
      </trkpt>
      <trkpt lat="59.9760093" lon="17.739086">
        <ele>28.9769</ele>
        <time>2012-02-25T16:11:46Z</time>
      </trkpt>
      <trkpt lat="59.9760977" lon="17.7392748">
        <ele>28.9769</ele>
        <time>2012-02-25T16:11:55Z</time>
      </trkpt>
      <trkpt lat="59.9761962" lon="17.7394259">
        <ele>29.9381</ele>
        <time>2012-02-25T16:12:03Z</time>
      </trkpt>
      <trkpt lat="59.9762611" lon="17.7395683">
        <ele>30.8995</ele>
        <time>2012-02-25T16:12:10Z</time>
      </trkpt>
      <trkpt lat="59.9762999" lon="17.7397405">
        <ele>32.3416</ele>
        <time>2012-02-25T16:12:16Z</time>
      </trkpt>
      <trkpt lat="59.9763061" lon="17.7397649">
        <ele>32.3416</ele>
        <time>2012-02-25T16:12:17Z</time>
      </trkpt>
      <trkpt lat="59.9763564" lon="17.739976">
        <ele>32.3416</ele>
        <time>2012-02-25T16:12:25Z</time>
      </trkpt>
      <trkpt lat="59.9763569" lon="17.7400727">
        <ele>31.3801</ele>
        <time>2012-02-25T16:12:28Z</time>
      </trkpt>
      <trkpt lat="59.9763287" lon="17.7401935">
        <ele>30.8995</ele>
        <time>2012-02-25T16:12:32Z</time>
      </trkpt>
      <trkpt lat="59.9762674" lon="17.7403675">
        <ele>31.3801</ele>
        <time>2012-02-25T16:12:39Z</time>
      </trkpt>
      <trkpt lat="59.976208" lon="17.7405403">
        <ele>31.3801</ele>
        <time>2012-02-25T16:12:45Z</time>
      </trkpt>
      <trkpt lat="59.9761289" lon="17.7407794">
        <ele>30.4188</ele>
        <time>2012-02-25T16:12:54Z</time>
      </trkpt>
      <trkpt lat="59.9761055" lon="17.7408912">
        <ele>30.8995</ele>
        <time>2012-02-25T16:12:58Z</time>
      </trkpt>
      <trkpt lat="59.9760557" lon="17.7410672">
        <ele>30.4188</ele>
        <time>2012-02-25T16:13:04Z</time>
      </trkpt>
      <trkpt lat="59.976003" lon="17.7412806">
        <ele>32.3416</ele>
        <time>2012-02-25T16:13:12Z</time>
      </trkpt>
      <trkpt lat="59.9759423" lon="17.7415403">
        <ele>34.7449</ele>
        <time>2012-02-25T16:13:21Z</time>
      </trkpt>
      <trkpt lat="59.9759119" lon="17.7417409">
        <ele>36.6675</ele>
        <time>2012-02-25T16:13:28Z</time>
      </trkpt>
      <trkpt lat="59.9758579" lon="17.7419806">
        <ele>39.0707</ele>
        <time>2012-02-25T16:13:36Z</time>
      </trkpt>
      <trkpt lat="59.9758133" lon="17.7421458">
        <ele>40.5128</ele>
        <time>2012-02-25T16:13:42Z</time>
      </trkpt>
      <trkpt lat="59.9757866" lon="17.742252">
        <ele>40.9934</ele>
        <time>2012-02-25T16:13:46Z</time>
      </trkpt>
      <trkpt lat="59.975743" lon="17.7424433">
        <ele>40.9934</ele>
        <time>2012-02-25T16:13:53Z</time>
      </trkpt>
      <trkpt lat="59.9757051" lon="17.7425813">
        <ele>40.9934</ele>
        <time>2012-02-25T16:13:58Z</time>
      </trkpt>
      <trkpt lat="59.9756421" lon="17.7428021">
        <ele>41.474</ele>
        <time>2012-02-25T16:14:06Z</time>
      </trkpt>
      <trkpt lat="59.975588" lon="17.7429869">
        <ele>40.5128</ele>
        <time>2012-02-25T16:14:13Z</time>
      </trkpt>
      <trkpt lat="59.9755308" lon="17.7432358">
        <ele>42.4354</ele>
        <time>2012-02-25T16:14:22Z</time>
      </trkpt>
      <trkpt lat="59.9754759" lon="17.7434514">
        <ele>42.916</ele>
        <time>2012-02-25T16:14:30Z</time>
      </trkpt>
      <trkpt lat="59.9754411" lon="17.7436756">
        <ele>43.3966</ele>
        <time>2012-02-25T16:14:38Z</time>
      </trkpt>
      <trkpt lat="59.9754339" lon="17.7437337">
        <ele>43.8773</ele>
        <time>2012-02-25T16:14:40Z</time>
      </trkpt>
      <trkpt lat="59.9754013" lon="17.7438678">
        <ele>44.358</ele>
        <time>2012-02-25T16:14:45Z</time>
      </trkpt>
      <trkpt lat="59.9753575" lon="17.7441116">
        <ele>44.8386</ele>
        <time>2012-02-25T16:14:53Z</time>
      </trkpt>
      <trkpt lat="59.975316" lon="17.7443135">
        <ele>45.3192</ele>
        <time>2012-02-25T16:15:00Z</time>
      </trkpt>
      <trkpt lat="59.9753091" lon="17.7444452">
        <ele>45.3192</ele>
        <time>2012-02-25T16:15:05Z</time>
      </trkpt>
      <trkpt lat="59.9752642" lon="17.744613">
        <ele>43.8773</ele>
        <time>2012-02-25T16:15:11Z</time>
      </trkpt>
      <trkpt lat="59.9752038" lon="17.7448104">
        <ele>43.8773</ele>
        <time>2012-02-25T16:15:18Z</time>
      </trkpt>
      <trkpt lat="59.9751746" lon="17.7449312">
        <ele>44.8386</ele>
        <time>2012-02-25T16:15:22Z</time>
      </trkpt>
      <trkpt lat="59.9751081" lon="17.7451524">
        <ele>44.358</ele>
        <time>2012-02-25T16:15:30Z</time>
      </trkpt>
      <trkpt lat="59.975033" lon="17.7453529">
        <ele>41.9547</ele>
        <time>2012-02-25T16:15:38Z</time>
      </trkpt>
      <trkpt lat="59.9749659" lon="17.7455284">
        <ele>43.3966</ele>
        <time>2012-02-25T16:15:45Z</time>
      </trkpt>
      <trkpt lat="59.9749096" lon="17.7456485">
        <ele>42.4354</ele>
        <time>2012-02-25T16:15:51Z</time>
      </trkpt>
      <trkpt lat="59.9748462" lon="17.7458104">
        <ele>41.474</ele>
        <time>2012-02-25T16:15:57Z</time>
      </trkpt>
      <trkpt lat="59.9748074" lon="17.7459061">
        <ele>40.0321</ele>
        <time>2012-02-25T16:16:01Z</time>
      </trkpt>
      <trkpt lat="59.9747459" lon="17.7460075">
        <ele>36.6675</ele>
        <time>2012-02-25T16:16:07Z</time>
      </trkpt>
      <trkpt lat="59.9747369" lon="17.746017">
        <ele>36.6675</ele>
        <time>2012-02-25T16:16:08Z</time>
      </trkpt>
      <trkpt lat="59.9746951" lon="17.7461129">
        <ele>34.2642</ele>
        <time>2012-02-25T16:16:13Z</time>
      </trkpt>
      <trkpt lat="59.9746216" lon="17.746188">
        <ele>31.8607</ele>
        <time>2012-02-25T16:16:19Z</time>
      </trkpt>
      <trkpt lat="59.9745734" lon="17.7462644">
        <ele>31.8607</ele>
        <time>2012-02-25T16:16:22Z</time>
      </trkpt>
      <trkpt lat="59.9744905" lon="17.7463934">
        <ele>28.9769</ele>
        <time>2012-02-25T16:16:27Z</time>
      </trkpt>
      <trkpt lat="59.9743743" lon="17.7465298">
        <ele>27.5349</ele>
        <time>2012-02-25T16:16:34Z</time>
      </trkpt>
      <trkpt lat="59.9742774" lon="17.746666">
        <ele>26.5736</ele>
        <time>2012-02-25T16:16:41Z</time>
      </trkpt>
      <trkpt lat="59.9742" lon="17.7467943">
        <ele>27.0543</ele>
        <time>2012-02-25T16:16:48Z</time>
      </trkpt>
      <trkpt lat="59.9741213" lon="17.7468896">
        <ele>28.0155</ele>
        <time>2012-02-25T16:16:54Z</time>
      </trkpt>
      <trkpt lat="59.9740404" lon="17.7470012">
        <ele>29.4575</ele>
        <time>2012-02-25T16:17:00Z</time>
      </trkpt>
      <trkpt lat="59.9739605" lon="17.7470925">
        <ele>29.4575</ele>
        <time>2012-02-25T16:17:06Z</time>
      </trkpt>
      <trkpt lat="59.9738848" lon="17.7472046">
        <ele>28.9769</ele>
        <time>2012-02-25T16:17:12Z</time>
      </trkpt>
      <trkpt lat="59.973814" lon="17.7473344">
        <ele>28.0155</ele>
        <time>2012-02-25T16:17:17Z</time>
      </trkpt>
      <trkpt lat="59.9737643" lon="17.7473711">
        <ele>25.1317</ele>
        <time>2012-02-25T16:17:23Z</time>
      </trkpt>
      <trkpt lat="59.9736974" lon="17.7474006">
        <ele>24.1703</ele>
        <time>2012-02-25T16:17:28Z</time>
      </trkpt>
      <trkpt lat="59.9736175" lon="17.747449">
        <ele>23.6896</ele>
        <time>2012-02-25T16:17:34Z</time>
      </trkpt>
      <trkpt lat="59.9735409" lon="17.7475306">
        <ele>23.209</ele>
        <time>2012-02-25T16:17:40Z</time>
      </trkpt>
      <trkpt lat="59.9734959" lon="17.7475467">
        <ele>23.6896</ele>
        <time>2012-02-25T16:17:44Z</time>
      </trkpt>
      <trkpt lat="59.9734343" lon="17.7476309">
        <ele>24.651</ele>
        <time>2012-02-25T16:17:48Z</time>
      </trkpt>
      <trkpt lat="59.97336" lon="17.7476975">
        <ele>26.5736</ele>
        <time>2012-02-25T16:17:53Z</time>
      </trkpt>
      <trkpt lat="59.973251" lon="17.7478005">
        <ele>27.5349</ele>
        <time>2012-02-25T16:18:01Z</time>
      </trkpt>
      <trkpt lat="59.9731602" lon="17.7478978">
        <ele>27.0543</ele>
        <time>2012-02-25T16:18:08Z</time>
      </trkpt>
      <trkpt lat="59.9730471" lon="17.7480221">
        <ele>28.0155</ele>
        <time>2012-02-25T16:18:16Z</time>
      </trkpt>
      <trkpt lat="59.9729677" lon="17.7481252">
        <ele>28.4962</ele>
        <time>2012-02-25T16:18:22Z</time>
      </trkpt>
      <trkpt lat="59.9729301" lon="17.7481832">
        <ele>29.4575</ele>
        <time>2012-02-25T16:18:25Z</time>
      </trkpt>
      <trkpt lat="59.972879" lon="17.7483056">
        <ele>29.9381</ele>
        <time>2012-02-25T16:18:30Z</time>
      </trkpt>
      <trkpt lat="59.9727993" lon="17.7484655">
        <ele>29.9381</ele>
        <time>2012-02-25T16:18:38Z</time>
      </trkpt>
      <trkpt lat="59.9727598" lon="17.748605">
        <ele>29.4575</ele>
        <time>2012-02-25T16:18:45Z</time>
      </trkpt>
      <trkpt lat="59.9727413" lon="17.7486498">
        <ele>29.9381</ele>
        <time>2012-02-25T16:18:47Z</time>
      </trkpt>
      <trkpt lat="59.9726711" lon="17.7487814">
        <ele>30.4188</ele>
        <time>2012-02-25T16:18:53Z</time>
      </trkpt>
      <trkpt lat="59.9726644" lon="17.7487995">
        <ele>30.4188</ele>
        <time>2012-02-25T16:18:54Z</time>
      </trkpt>
      <trkpt lat="59.9726514" lon="17.7488394">
        <ele>30.4188</ele>
        <time>2012-02-25T16:18:56Z</time>
      </trkpt>
      <trkpt lat="59.972627" lon="17.7488728">
        <ele>29.9381</ele>
        <time>2012-02-25T16:18:59Z</time>
      </trkpt>
      <trkpt lat="59.9725796" lon="17.7489546">
        <ele>29.9381</ele>
        <time>2012-02-25T16:19:04Z</time>
      </trkpt>
      <trkpt lat="59.9725654" lon="17.7490046">
        <ele>30.4188</ele>
        <time>2012-02-25T16:19:06Z</time>
      </trkpt>
      <trkpt lat="59.9725179" lon="17.7491098">
        <ele>31.3801</ele>
        <time>2012-02-25T16:19:12Z</time>
      </trkpt>
      <trkpt lat="59.9724926" lon="17.7491836">
        <ele>30.8995</ele>
        <time>2012-02-25T16:19:16Z</time>
      </trkpt>
      <trkpt lat="59.9724449" lon="17.7493052">
        <ele>29.9381</ele>
        <time>2012-02-25T16:19:22Z</time>
      </trkpt>
      <trkpt lat="59.9723901" lon="17.7494052">
        <ele>29.4575</ele>
        <time>2012-02-25T16:19:26Z</time>
      </trkpt>
      <trkpt lat="59.9723338" lon="17.7495678">
        <ele>28.0155</ele>
        <time>2012-02-25T16:19:33Z</time>
      </trkpt>
      <trkpt lat="59.9723133" lon="17.7496534">
        <ele>27.0543</ele>
        <time>2012-02-25T16:19:37Z</time>
      </trkpt>
      <trkpt lat="59.9722797" lon="17.7497485">
        <ele>24.1703</ele>
        <time>2012-02-25T16:19:42Z</time>
      </trkpt>
      <trkpt lat="59.9722491" lon="17.7498585">
        <ele>25.1317</ele>
        <time>2012-02-25T16:19:47Z</time>
      </trkpt>
      <trkpt lat="59.9722119" lon="17.7499312">
        <ele>24.1703</ele>
        <time>2012-02-25T16:19:51Z</time>
      </trkpt>
      <trkpt lat="59.9721724" lon="17.7499926">
        <ele>23.6896</ele>
        <time>2012-02-25T16:19:54Z</time>
      </trkpt>
      <trkpt lat="59.9721256" lon="17.7500879">
        <ele>22.7283</ele>
        <time>2012-02-25T16:19:59Z</time>
      </trkpt>
      <trkpt lat="59.9720511" lon="17.7502443">
        <ele>21.767</ele>
        <time>2012-02-25T16:20:06Z</time>
      </trkpt>
      <trkpt lat="59.9719845" lon="17.7503688">
        <ele>23.6896</ele>
        <time>2012-02-25T16:20:11Z</time>
      </trkpt>
      <trkpt lat="59.971898" lon="17.7505113">
        <ele>26.5736</ele>
        <time>2012-02-25T16:20:17Z</time>
      </trkpt>
      <trkpt lat="59.9718177" lon="17.7506754">
        <ele>25.6123</ele>
        <time>2012-02-25T16:20:24Z</time>
      </trkpt>
      <trkpt lat="59.9717653" lon="17.7507387">
        <ele>25.6123</ele>
        <time>2012-02-25T16:20:28Z</time>
      </trkpt>
      <trkpt lat="59.9716947" lon="17.7508798">
        <ele>27.0543</ele>
        <time>2012-02-25T16:20:34Z</time>
      </trkpt>
      <trkpt lat="59.9716236" lon="17.7509982">
        <ele>26.5736</ele>
        <time>2012-02-25T16:20:39Z</time>
      </trkpt>
      <trkpt lat="59.9715259" lon="17.7511805">
        <ele>24.1703</ele>
        <time>2012-02-25T16:20:46Z</time>
      </trkpt>
      <trkpt lat="59.9714572" lon="17.7512974">
        <ele>20.8057</ele>
        <time>2012-02-25T16:20:52Z</time>
      </trkpt>
      <trkpt lat="59.9713901" lon="17.7513847">
        <ele>18.8831</ele>
        <time>2012-02-25T16:20:58Z</time>
      </trkpt>
      <trkpt lat="59.9712729" lon="17.7514917">
        <ele>21.767</ele>
        <time>2012-02-25T16:21:06Z</time>
      </trkpt>
      <trkpt lat="59.9711836" lon="17.7516009">
        <ele>21.2864</ele>
        <time>2012-02-25T16:21:13Z</time>
      </trkpt>
      <trkpt lat="59.9711243" lon="17.7516589">
        <ele>21.2864</ele>
        <time>2012-02-25T16:21:18Z</time>
      </trkpt>
      <trkpt lat="59.9710538" lon="17.7517364">
        <ele>21.767</ele>
        <time>2012-02-25T16:21:23Z</time>
      </trkpt>
      <trkpt lat="59.9710398" lon="17.7517493">
        <ele>22.2476</ele>
        <time>2012-02-25T16:21:24Z</time>
      </trkpt>
      <trkpt lat="59.9709458" lon="17.7519009">
        <ele>22.2476</ele>
        <time>2012-02-25T16:21:32Z</time>
      </trkpt>
      <trkpt lat="59.9708995" lon="17.7519793">
        <ele>20.8057</ele>
        <time>2012-02-25T16:21:36Z</time>
      </trkpt>
      <trkpt lat="59.9708107" lon="17.7520533">
        <ele>23.209</ele>
        <time>2012-02-25T16:21:43Z</time>
      </trkpt>
      <trkpt lat="59.97075" lon="17.752173">
        <ele>23.6896</ele>
        <time>2012-02-25T16:21:48Z</time>
      </trkpt>
      <trkpt lat="59.9706845" lon="17.752343">
        <ele>21.2864</ele>
        <time>2012-02-25T16:21:54Z</time>
      </trkpt>
      <trkpt lat="59.970637" lon="17.7524334">
        <ele>19.3638</ele>
        <time>2012-02-25T16:21:59Z</time>
      </trkpt>
      <trkpt lat="59.9705825" lon="17.7525033">
        <ele>23.209</ele>
        <time>2012-02-25T16:22:05Z</time>
      </trkpt>
      <trkpt lat="59.9705296" lon="17.7525864">
        <ele>23.6896</ele>
        <time>2012-02-25T16:22:10Z</time>
      </trkpt>
      <trkpt lat="59.9704614" lon="17.7526962">
        <ele>24.651</ele>
        <time>2012-02-25T16:22:16Z</time>
      </trkpt>
      <trkpt lat="59.9704355" lon="17.7527934">
        <ele>25.1317</ele>
        <time>2012-02-25T16:22:20Z</time>
      </trkpt>
      <trkpt lat="59.9704343" lon="17.752907">
        <ele>25.1317</ele>
        <time>2012-02-25T16:22:24Z</time>
      </trkpt>
      <trkpt lat="59.9703781" lon="17.7531272">
        <ele>24.651</ele>
        <time>2012-02-25T16:22:33Z</time>
      </trkpt>
      <trkpt lat="59.9703397" lon="17.7532794">
        <ele>25.1317</ele>
        <time>2012-02-25T16:22:39Z</time>
      </trkpt>
      <trkpt lat="59.9702778" lon="17.7534359">
        <ele>25.6123</ele>
        <time>2012-02-25T16:22:46Z</time>
      </trkpt>
      <trkpt lat="59.9702247" lon="17.7536067">
        <ele>25.6123</ele>
        <time>2012-02-25T16:22:53Z</time>
      </trkpt>
      <trkpt lat="59.9701826" lon="17.7536994">
        <ele>25.6123</ele>
        <time>2012-02-25T16:22:57Z</time>
      </trkpt>
      <trkpt lat="59.9700957" lon="17.7538805">
        <ele>24.1703</ele>
        <time>2012-02-25T16:23:05Z</time>
      </trkpt>
      <trkpt lat="59.9700786" lon="17.753927">
        <ele>23.6896</ele>
        <time>2012-02-25T16:23:07Z</time>
      </trkpt>
      <trkpt lat="59.9699992" lon="17.7541021">
        <ele>24.1703</ele>
        <time>2012-02-25T16:23:14Z</time>
      </trkpt>
      <trkpt lat="59.9698828" lon="17.7542735">
        <ele>24.1703</ele>
        <time>2012-02-25T16:23:23Z</time>
      </trkpt>
      <trkpt lat="59.9698088" lon="17.7543826">
        <ele>25.1317</ele>
        <time>2012-02-25T16:23:29Z</time>
      </trkpt>
      <trkpt lat="59.9697707" lon="17.7544995">
        <ele>25.1317</ele>
        <time>2012-02-25T16:23:34Z</time>
      </trkpt>
      <trkpt lat="59.9697398" lon="17.7545973">
        <ele>24.651</ele>
        <time>2012-02-25T16:23:39Z</time>
      </trkpt>
      <trkpt lat="59.9696974" lon="17.7547504">
        <ele>22.7283</ele>
        <time>2012-02-25T16:23:45Z</time>
      </trkpt>
      <trkpt lat="59.9696944" lon="17.7547718">
        <ele>22.2476</ele>
        <time>2012-02-25T16:23:46Z</time>
      </trkpt>
      <trkpt lat="59.9696588" lon="17.7548644">
        <ele>21.2864</ele>
        <time>2012-02-25T16:23:51Z</time>
      </trkpt>
      <trkpt lat="59.9696193" lon="17.754949">
        <ele>21.767</ele>
        <time>2012-02-25T16:23:55Z</time>
      </trkpt>
      <trkpt lat="59.969606" lon="17.7549702">
        <ele>21.767</ele>
        <time>2012-02-25T16:23:56Z</time>
      </trkpt>
      <trkpt lat="59.9695244" lon="17.7550982">
        <ele>21.767</ele>
        <time>2012-02-25T16:24:03Z</time>
      </trkpt>
      <trkpt lat="59.9694615" lon="17.755226">
        <ele>22.2476</ele>
        <time>2012-02-25T16:24:09Z</time>
      </trkpt>
      <trkpt lat="59.9694501" lon="17.7552467">
        <ele>22.2476</ele>
        <time>2012-02-25T16:24:10Z</time>
      </trkpt>
      <trkpt lat="59.9693669" lon="17.7553784">
        <ele>22.2476</ele>
        <time>2012-02-25T16:24:17Z</time>
      </trkpt>
      <trkpt lat="59.9692742" lon="17.7555417">
        <ele>23.6896</ele>
        <time>2012-02-25T16:24:25Z</time>
      </trkpt>
      <trkpt lat="59.9692584" lon="17.7554736">
        <ele>22.7283</ele>
        <time>2012-02-25T16:24:29Z</time>
      </trkpt>
      <trkpt lat="59.9692908" lon="17.7554007">
        <ele>21.767</ele>
        <time>2012-02-25T16:24:32Z</time>
      </trkpt>
      <trkpt lat="59.9693781" lon="17.7552325">
        <ele>21.767</ele>
        <time>2012-02-25T16:24:40Z</time>
      </trkpt>
      <trkpt lat="59.9694524" lon="17.7550814">
        <ele>21.767</ele>
        <time>2012-02-25T16:24:47Z</time>
      </trkpt>
      <trkpt lat="59.9695785" lon="17.7548504">
        <ele>20.8057</ele>
        <time>2012-02-25T16:24:58Z</time>
      </trkpt>
      <trkpt lat="59.9696749" lon="17.7546654">
        <ele>21.2864</ele>
        <time>2012-02-25T16:25:07Z</time>
      </trkpt>
      <trkpt lat="59.9697699" lon="17.7544481">
        <ele>22.2476</ele>
        <time>2012-02-25T16:25:17Z</time>
      </trkpt>
      <trkpt lat="59.9698392" lon="17.7542818">
        <ele>23.209</ele>
        <time>2012-02-25T16:25:25Z</time>
      </trkpt>
      <trkpt lat="59.9699402" lon="17.7540402">
        <ele>25.6123</ele>
        <time>2012-02-25T16:25:36Z</time>
      </trkpt>
      <trkpt lat="59.9700184" lon="17.7538512">
        <ele>26.0929</ele>
        <time>2012-02-25T16:25:44Z</time>
      </trkpt>
      <trkpt lat="59.9701024" lon="17.7536731">
        <ele>25.1317</ele>
        <time>2012-02-25T16:25:52Z</time>
      </trkpt>
      <trkpt lat="59.9701772" lon="17.7534489">
        <ele>25.1317</ele>
        <time>2012-02-25T16:26:01Z</time>
      </trkpt>
      <trkpt lat="59.9702266" lon="17.7532877">
        <ele>25.6123</ele>
        <time>2012-02-25T16:26:07Z</time>
      </trkpt>
      <trkpt lat="59.9702841" lon="17.7531124">
        <ele>25.1317</ele>
        <time>2012-02-25T16:26:14Z</time>
      </trkpt>
      <trkpt lat="59.9703519" lon="17.7529391">
        <ele>24.1703</ele>
        <time>2012-02-25T16:26:21Z</time>
      </trkpt>
      <trkpt lat="59.9704148" lon="17.7527754">
        <ele>24.1703</ele>
        <time>2012-02-25T16:26:28Z</time>
      </trkpt>
      <trkpt lat="59.9705011" lon="17.7525708">
        <ele>23.6896</ele>
        <time>2012-02-25T16:26:37Z</time>
      </trkpt>
      <trkpt lat="59.9705737" lon="17.7524051">
        <ele>24.1703</ele>
        <time>2012-02-25T16:26:44Z</time>
      </trkpt>
      <trkpt lat="59.9706334" lon="17.7522893">
        <ele>24.651</ele>
        <time>2012-02-25T16:26:50Z</time>
      </trkpt>
      <trkpt lat="59.9706975" lon="17.7521741">
        <ele>24.651</ele>
        <time>2012-02-25T16:26:56Z</time>
      </trkpt>
      <trkpt lat="59.9707873" lon="17.7520104">
        <ele>24.651</ele>
        <time>2012-02-25T16:27:04Z</time>
      </trkpt>
      <trkpt lat="59.9709037" lon="17.7518148">
        <ele>24.651</ele>
        <time>2012-02-25T16:27:14Z</time>
      </trkpt>
      <trkpt lat="59.9709753" lon="17.7517098">
        <ele>25.1317</ele>
        <time>2012-02-25T16:27:21Z</time>
      </trkpt>
      <trkpt lat="59.9710592" lon="17.7516161">
        <ele>23.209</ele>
        <time>2012-02-25T16:27:28Z</time>
      </trkpt>
      <trkpt lat="59.971145" lon="17.7515077">
        <ele>21.767</ele>
        <time>2012-02-25T16:27:36Z</time>
      </trkpt>
      <trkpt lat="59.9712436" lon="17.7514123">
        <ele>22.7283</ele>
        <time>2012-02-25T16:27:43Z</time>
      </trkpt>
      <trkpt lat="59.9713579" lon="17.7512717">
        <ele>24.651</ele>
        <time>2012-02-25T16:27:52Z</time>
      </trkpt>
      <trkpt lat="59.9714613" lon="17.7511635">
        <ele>26.0929</ele>
        <time>2012-02-25T16:28:00Z</time>
      </trkpt>
      <trkpt lat="59.9715724" lon="17.7510036">
        <ele>26.0929</ele>
        <time>2012-02-25T16:28:09Z</time>
      </trkpt>
      <trkpt lat="59.9716729" lon="17.7508579">
        <ele>26.0929</ele>
        <time>2012-02-25T16:28:17Z</time>
      </trkpt>
      <trkpt lat="59.9717501" lon="17.750718">
        <ele>26.0929</ele>
        <time>2012-02-25T16:28:24Z</time>
      </trkpt>
      <trkpt lat="59.9718523" lon="17.7505494">
        <ele>25.1317</ele>
        <time>2012-02-25T16:28:33Z</time>
      </trkpt>
      <trkpt lat="59.9719222" lon="17.750408">
        <ele>25.6123</ele>
        <time>2012-02-25T16:28:40Z</time>
      </trkpt>
      <trkpt lat="59.9719826" lon="17.7502725">
        <ele>26.5736</ele>
        <time>2012-02-25T16:28:46Z</time>
      </trkpt>
      <trkpt lat="59.9720531" lon="17.7501134">
        <ele>25.6123</ele>
        <time>2012-02-25T16:28:53Z</time>
      </trkpt>
      <trkpt lat="59.9721117" lon="17.7499568">
        <ele>25.1317</ele>
        <time>2012-02-25T16:29:00Z</time>
      </trkpt>
      <trkpt lat="59.972188" lon="17.7498249">
        <ele>24.1703</ele>
        <time>2012-02-25T16:29:06Z</time>
      </trkpt>
      <trkpt lat="59.9722061" lon="17.7497823">
        <ele>23.209</ele>
        <time>2012-02-25T16:29:08Z</time>
      </trkpt>
      <trkpt lat="59.9722761" lon="17.7495767">
        <ele>21.767</ele>
        <time>2012-02-25T16:29:16Z</time>
      </trkpt>
      <trkpt lat="59.9723242" lon="17.7494851">
        <ele>21.2864</ele>
        <time>2012-02-25T16:29:20Z</time>
      </trkpt>
      <trkpt lat="59.9724091" lon="17.7493042">
        <ele>18.8831</ele>
        <time>2012-02-25T16:29:28Z</time>
      </trkpt>
      <trkpt lat="59.9724484" lon="17.749252">
        <ele>18.4023</ele>
        <time>2012-02-25T16:29:32Z</time>
      </trkpt>
      <trkpt lat="59.9725118" lon="17.7491404">
        <ele>17.9218</ele>
        <time>2012-02-25T16:29:38Z</time>
      </trkpt>
      <trkpt lat="59.9725858" lon="17.7489779">
        <ele>16.4797</ele>
        <time>2012-02-25T16:29:46Z</time>
      </trkpt>
      <trkpt lat="59.9726355" lon="17.7488881">
        <ele>15.5184</ele>
        <time>2012-02-25T16:29:51Z</time>
      </trkpt>
      <trkpt lat="59.9727096" lon="17.7487547">
        <ele>16.9604</ele>
        <time>2012-02-25T16:29:57Z</time>
      </trkpt>
      <trkpt lat="59.972719" lon="17.7487333">
        <ele>17.4412</ele>
        <time>2012-02-25T16:29:58Z</time>
      </trkpt>
      <trkpt lat="59.9727779" lon="17.7485568">
        <ele>17.4412</ele>
        <time>2012-02-25T16:30:05Z</time>
      </trkpt>
      <trkpt lat="59.9728474" lon="17.7484079">
        <ele>18.4023</ele>
        <time>2012-02-25T16:30:11Z</time>
      </trkpt>
      <trkpt lat="59.9729236" lon="17.7482698">
        <ele>19.3638</ele>
        <time>2012-02-25T16:30:17Z</time>
      </trkpt>
      <trkpt lat="59.9729961" lon="17.7481447">
        <ele>19.3638</ele>
        <time>2012-02-25T16:30:23Z</time>
      </trkpt>
      <trkpt lat="59.9730669" lon="17.7480383">
        <ele>19.8444</ele>
        <time>2012-02-25T16:30:29Z</time>
      </trkpt>
      <trkpt lat="59.9731141" lon="17.7479641">
        <ele>19.3638</ele>
        <time>2012-02-25T16:30:33Z</time>
      </trkpt>
      <trkpt lat="59.9731896" lon="17.7478424">
        <ele>21.2864</ele>
        <time>2012-02-25T16:30:40Z</time>
      </trkpt>
      <trkpt lat="59.9732343" lon="17.7477749">
        <ele>22.2476</ele>
        <time>2012-02-25T16:30:44Z</time>
      </trkpt>
      <trkpt lat="59.9733577" lon="17.7476346">
        <ele>24.651</ele>
        <time>2012-02-25T16:30:53Z</time>
      </trkpt>
      <trkpt lat="59.9734364" lon="17.7475477">
        <ele>25.1317</ele>
        <time>2012-02-25T16:30:59Z</time>
      </trkpt>
      <trkpt lat="59.9735068" lon="17.7474974">
        <ele>26.0929</ele>
        <time>2012-02-25T16:31:03Z</time>
      </trkpt>
      <trkpt lat="59.9735752" lon="17.7474335">
        <ele>26.5736</ele>
        <time>2012-02-25T16:31:08Z</time>
      </trkpt>
      <trkpt lat="59.9736384" lon="17.7473275">
        <ele>27.0543</ele>
        <time>2012-02-25T16:31:15Z</time>
      </trkpt>
      <trkpt lat="59.9736965" lon="17.747246">
        <ele>26.5736</ele>
        <time>2012-02-25T16:31:22Z</time>
      </trkpt>
      <trkpt lat="59.9737865" lon="17.7471041">
        <ele>25.1317</ele>
        <time>2012-02-25T16:31:32Z</time>
      </trkpt>
      <trkpt lat="59.9737963" lon="17.7470906">
        <ele>25.1317</ele>
        <time>2012-02-25T16:31:33Z</time>
      </trkpt>
      <trkpt lat="59.9738352" lon="17.7470438">
        <ele>25.6123</ele>
        <time>2012-02-25T16:31:36Z</time>
      </trkpt>
      <trkpt lat="59.9739374" lon="17.7469276">
        <ele>25.6123</ele>
        <time>2012-02-25T16:31:44Z</time>
      </trkpt>
      <trkpt lat="59.9740259" lon="17.7468155">
        <ele>27.0543</ele>
        <time>2012-02-25T16:31:51Z</time>
      </trkpt>
      <trkpt lat="59.9740984" lon="17.7467334">
        <ele>27.5349</ele>
        <time>2012-02-25T16:31:57Z</time>
      </trkpt>
      <trkpt lat="59.9741792" lon="17.7466225">
        <ele>29.4575</ele>
        <time>2012-02-25T16:32:04Z</time>
      </trkpt>
      <trkpt lat="59.9742746" lon="17.7464999">
        <ele>30.4188</ele>
        <time>2012-02-25T16:32:11Z</time>
      </trkpt>
      <trkpt lat="59.9743693" lon="17.7463701">
        <ele>31.3801</ele>
        <time>2012-02-25T16:32:18Z</time>
      </trkpt>
      <trkpt lat="59.9744465" lon="17.7462354">
        <ele>31.8607</ele>
        <time>2012-02-25T16:32:25Z</time>
      </trkpt>
      <trkpt lat="59.9744598" lon="17.7462149">
        <ele>31.8607</ele>
        <time>2012-02-25T16:32:26Z</time>
      </trkpt>
      <trkpt lat="59.9745447" lon="17.7460718">
        <ele>32.3416</ele>
        <time>2012-02-25T16:32:33Z</time>
      </trkpt>
      <trkpt lat="59.9746168" lon="17.7459677">
        <ele>31.3801</ele>
        <time>2012-02-25T16:32:39Z</time>
      </trkpt>
      <trkpt lat="59.9746594" lon="17.745902">
        <ele>30.4188</ele>
        <time>2012-02-25T16:32:43Z</time>
      </trkpt>
      <trkpt lat="59.9746939" lon="17.7458124">
        <ele>30.4188</ele>
        <time>2012-02-25T16:32:47Z</time>
      </trkpt>
      <trkpt lat="59.9747256" lon="17.7457434">
        <ele>30.8995</ele>
        <time>2012-02-25T16:32:50Z</time>
      </trkpt>
      <trkpt lat="59.9747754" lon="17.745616">
        <ele>31.3801</ele>
        <time>2012-02-25T16:32:55Z</time>
      </trkpt>
      <trkpt lat="59.9748578" lon="17.7454154">
        <ele>32.3416</ele>
        <time>2012-02-25T16:33:04Z</time>
      </trkpt>
      <trkpt lat="59.9748997" lon="17.7452717">
        <ele>32.3416</ele>
        <time>2012-02-25T16:33:10Z</time>
      </trkpt>
      <trkpt lat="59.974965" lon="17.7451057">
        <ele>32.8223</ele>
        <time>2012-02-25T16:33:17Z</time>
      </trkpt>
      <trkpt lat="59.9750233" lon="17.744889">
        <ele>33.7834</ele>
        <time>2012-02-25T16:33:25Z</time>
      </trkpt>
      <trkpt lat="59.9750697" lon="17.7446944">
        <ele>33.3029</ele>
        <time>2012-02-25T16:33:32Z</time>
      </trkpt>
      <trkpt lat="59.9751054" lon="17.7445557">
        <ele>32.8223</ele>
        <time>2012-02-25T16:33:37Z</time>
      </trkpt>
      <trkpt lat="59.9751717" lon="17.7443448">
        <ele>33.7834</ele>
        <time>2012-02-25T16:33:45Z</time>
      </trkpt>
      <trkpt lat="59.9752248" lon="17.7441247">
        <ele>34.2642</ele>
        <time>2012-02-25T16:33:53Z</time>
      </trkpt>
      <trkpt lat="59.9752564" lon="17.7439501">
        <ele>34.7449</ele>
        <time>2012-02-25T16:33:59Z</time>
      </trkpt>
      <trkpt lat="59.9752987" lon="17.7436749">
        <ele>34.7449</ele>
        <time>2012-02-25T16:34:09Z</time>
      </trkpt>
      <trkpt lat="59.9753312" lon="17.7434694">
        <ele>35.2255</ele>
        <time>2012-02-25T16:34:16Z</time>
      </trkpt>
      <trkpt lat="59.9753987" lon="17.743187">
        <ele>35.7061</ele>
        <time>2012-02-25T16:34:26Z</time>
      </trkpt>
      <trkpt lat="59.9754572" lon="17.7429194">
        <ele>35.2255</ele>
        <time>2012-02-25T16:34:36Z</time>
      </trkpt>
      <trkpt lat="59.9755089" lon="17.7427167">
        <ele>34.7449</ele>
        <time>2012-02-25T16:34:44Z</time>
      </trkpt>
      <trkpt lat="59.9755613" lon="17.7425057">
        <ele>35.2255</ele>
        <time>2012-02-25T16:34:52Z</time>
      </trkpt>
      <trkpt lat="59.9756176" lon="17.7423151">
        <ele>33.7834</ele>
        <time>2012-02-25T16:34:59Z</time>
      </trkpt>
      <trkpt lat="59.975654" lon="17.7421806">
        <ele>30.8995</ele>
        <time>2012-02-25T16:35:04Z</time>
      </trkpt>
      <trkpt lat="59.9756907" lon="17.7420309">
        <ele>29.9381</ele>
        <time>2012-02-25T16:35:10Z</time>
      </trkpt>
      <trkpt lat="59.9757192" lon="17.7418965">
        <ele>30.8995</ele>
        <time>2012-02-25T16:35:15Z</time>
      </trkpt>
      <trkpt lat="59.9757555" lon="17.7417463">
        <ele>33.3029</ele>
        <time>2012-02-25T16:35:21Z</time>
      </trkpt>
      <trkpt lat="59.9758109" lon="17.7415067">
        <ele>35.2255</ele>
        <time>2012-02-25T16:35:30Z</time>
      </trkpt>
      <trkpt lat="59.9758543" lon="17.7413054">
        <ele>34.7449</ele>
        <time>2012-02-25T16:35:37Z</time>
      </trkpt>
      <trkpt lat="59.9758637" lon="17.7412837">
        <ele>34.7449</ele>
        <time>2012-02-25T16:35:38Z</time>
      </trkpt>
      <trkpt lat="59.9758974" lon="17.7411378">
        <ele>34.7449</ele>
        <time>2012-02-25T16:35:44Z</time>
      </trkpt>
      <trkpt lat="59.9759456" lon="17.7409436">
        <ele>34.7449</ele>
        <time>2012-02-25T16:35:51Z</time>
      </trkpt>
      <trkpt lat="59.9760125" lon="17.7407629">
        <ele>35.7061</ele>
        <time>2012-02-25T16:35:58Z</time>
      </trkpt>
      <trkpt lat="59.9760731" lon="17.7405621">
        <ele>36.1868</ele>
        <time>2012-02-25T16:36:06Z</time>
      </trkpt>
      <trkpt lat="59.9761443" lon="17.7403754">
        <ele>35.7061</ele>
        <time>2012-02-25T16:36:14Z</time>
      </trkpt>
      <trkpt lat="59.9762041" lon="17.7402016">
        <ele>35.7061</ele>
        <time>2012-02-25T16:36:21Z</time>
      </trkpt>
      <trkpt lat="59.9762124" lon="17.740176">
        <ele>36.1868</ele>
        <time>2012-02-25T16:36:22Z</time>
      </trkpt>
      <trkpt lat="59.9762766" lon="17.7399053">
        <ele>34.7449</ele>
        <time>2012-02-25T16:36:32Z</time>
      </trkpt>
      <trkpt lat="59.9763657" lon="17.7396893">
        <ele>33.7834</ele>
        <time>2012-02-25T16:36:41Z</time>
      </trkpt>
      <trkpt lat="59.9764367" lon="17.7395746">
        <ele>33.7834</ele>
        <time>2012-02-25T16:36:47Z</time>
      </trkpt>
      <trkpt lat="59.9764766" lon="17.739514">
        <ele>34.2642</ele>
        <time>2012-02-25T16:36:51Z</time>
      </trkpt>
      <trkpt lat="59.9765455" lon="17.7394274">
        <ele>33.7834</ele>
        <time>2012-02-25T16:36:57Z</time>
      </trkpt>
      <trkpt lat="59.9766619" lon="17.7393708">
        <ele>34.2642</ele>
        <time>2012-02-25T16:37:05Z</time>
      </trkpt>
      <trkpt lat="59.9767707" lon="17.7393222">
        <ele>34.2642</ele>
        <time>2012-02-25T16:37:13Z</time>
      </trkpt>
      <trkpt lat="59.9768474" lon="17.7393029">
        <ele>35.2255</ele>
        <time>2012-02-25T16:37:18Z</time>
      </trkpt>
      <trkpt lat="59.9769841" lon="17.7392687">
        <ele>35.2255</ele>
        <time>2012-02-25T16:37:27Z</time>
      </trkpt>
      <trkpt lat="59.9771287" lon="17.7391975">
        <ele>34.7449</ele>
        <time>2012-02-25T16:37:37Z</time>
      </trkpt>
      <trkpt lat="59.9772604" lon="17.7391212">
        <ele>36.1868</ele>
        <time>2012-02-25T16:37:46Z</time>
      </trkpt>
      <trkpt lat="59.9773505" lon="17.7390786">
        <ele>37.1481</ele>
        <time>2012-02-25T16:37:52Z</time>
      </trkpt>
      <trkpt lat="59.9774326" lon="17.7390056">
        <ele>38.1094</ele>
        <time>2012-02-25T16:37:58Z</time>
      </trkpt>
      <trkpt lat="59.9774438" lon="17.7390014">
        <ele>37.6287</ele>
        <time>2012-02-25T16:37:59Z</time>
      </trkpt>
      <trkpt lat="59.9775202" lon="17.7389535">
        <ele>39.0707</ele>
        <time>2012-02-25T16:38:05Z</time>
      </trkpt>
      <trkpt lat="59.977626" lon="17.7389284">
        <ele>40.9934</ele>
        <time>2012-02-25T16:38:12Z</time>
      </trkpt>
      <trkpt lat="59.9777167" lon="17.7389348">
        <ele>41.474</ele>
        <time>2012-02-25T16:38:18Z</time>
      </trkpt>
      <trkpt lat="59.9778139" lon="17.7389698">
        <ele>40.9934</ele>
        <time>2012-02-25T16:38:25Z</time>
      </trkpt>
      <trkpt lat="59.9778826" lon="17.7390036">
        <ele>40.9934</ele>
        <time>2012-02-25T16:38:30Z</time>
      </trkpt>
      <trkpt lat="59.9779656" lon="17.739046">
        <ele>40.0321</ele>
        <time>2012-02-25T16:38:36Z</time>
      </trkpt>
      <trkpt lat="59.9780569" lon="17.7391103">
        <ele>39.5513</ele>
        <time>2012-02-25T16:38:42Z</time>
      </trkpt>
      <trkpt lat="59.9781164" lon="17.739157">
        <ele>39.5513</ele>
        <time>2012-02-25T16:38:47Z</time>
      </trkpt>
      <trkpt lat="59.9781497" lon="17.7391642">
        <ele>39.5513</ele>
        <time>2012-02-25T16:38:49Z</time>
      </trkpt>
      <trkpt lat="59.978205" lon="17.7391652">
        <ele>39.0707</ele>
        <time>2012-02-25T16:38:53Z</time>
      </trkpt>
      <trkpt lat="59.9783025" lon="17.7392031">
        <ele>37.1481</ele>
        <time>2012-02-25T16:39:00Z</time>
      </trkpt>
      <trkpt lat="59.978434" lon="17.7392409">
        <ele>36.6675</ele>
        <time>2012-02-25T16:39:09Z</time>
      </trkpt>
      <trkpt lat="59.978538" lon="17.7392698">
        <ele>35.7061</ele>
        <time>2012-02-25T16:39:16Z</time>
      </trkpt>
      <trkpt lat="59.9785921" lon="17.7393024">
        <ele>33.7834</ele>
        <time>2012-02-25T16:39:20Z</time>
      </trkpt>
      <trkpt lat="59.9786601" lon="17.7393275">
        <ele>34.2642</ele>
        <time>2012-02-25T16:39:25Z</time>
      </trkpt>
      <trkpt lat="59.9787386" lon="17.7393383">
        <ele>31.8607</ele>
        <time>2012-02-25T16:39:31Z</time>
      </trkpt>
      <trkpt lat="59.9788149" lon="17.7393502">
        <ele>32.3416</ele>
        <time>2012-02-25T16:39:36Z</time>
      </trkpt>
    </trkseg>
  </trk>
</gpx>